Time,TemperatureF,DewpointF,PressureIn,WindDirection,WindDirectionDegrees,WindSpeedMPH,WindSpeedGustMPH,Humidity,HourlyPrecipIn,Conditions,Clouds,dailyrainin,SoftwareType,DateUTC
2013-10-04 00:00:00,71.2,63.2,29.82,SE,135,0.0,0.0,76,0.00,,,0.00,WUHU216HW,2013-10-04 04:00:00,
2013-10-04 00:28:00,69.4,61.8,29.77,NNW,338,0.0,0.0,77,0.00,,,0.00,WUHU216HW,2013-10-04 04:28:00,
2013-10-04 00:29:00,69.4,61.8,29.77,NNW,338,0.0,0.0,77,0.00,,,0.00,WUHU216HW,2013-10-04 04:29:00,
2013-10-04 00:30:00,69.4,61.8,29.77,NNW,338,0.0,0.0,77,0.00,,,0.00,WUHU216HW,2013-10-04 04:30:00,
2013-10-04 00:33:00,69.4,61.8,29.77,NNW,338,0.0,0.0,77,0.00,,,0.00,WUHU216HW,2013-10-04 04:33:00,
2013-10-04 00:35:00,69.4,61.8,29.77,NNW,338,0.0,0.0,77,0.00,,,0.00,WUHU216HW,2013-10-04 04:35:00,
2013-10-04 00:36:00,69.4,61.8,29.77,NNW,338,0.0,0.0,77,0.00,,,0.00,WUHU216HW,2013-10-04 04:36:00,
2013-10-04 00:37:00,69.4,61.8,29.77,North,0,0.0,0.0,77,0.00,,,0.00,WUHU216HW,2013-10-04 04:37:00,
2013-10-04 00:38:00,69.4,61.8,29.77,North,0,0.0,0.0,77,0.00,,,0.00,WUHU216HW,2013-10-04 04:38:00,
2013-10-04 00:39:00,69.4,61.8,29.77,North,0,0.0,0.0,77,0.00,,,0.00,WUHU216HW,2013-10-04 04:39:00,
2013-10-04 00:40:00,69.4,61.8,29.77,North,0,0.0,0.0,77,0.00,,,0.00,WUHU216HW,2013-10-04 04:40:00,
2013-10-04 00:41:00,69.4,61.8,29.77,NNE,23,0.0,0.0,77,0.00,,,0.00,WUHU216HW,2013-10-04 04:41:00,
2013-10-04 00:42:00,69.4,61.8,29.77,NNE,23,0.0,0.0,77,0.00,,,0.00,WUHU216HW,2013-10-04 04:42:00,
2013-10-04 00:43:00,69.4,61.8,29.77,North,0,0.0,0.0,77,0.00,,,0.00,WUHU216HW,2013-10-04 04:43:00,
2013-10-04 00:44:00,69.4,61.8,29.77,North,0,0.0,0.0,77,0.00,,,0.00,WUHU216HW,2013-10-04 04:44:00,
2013-10-04 00:45:00,69.4,61.8,29.77,North,0,0.0,0.0,77,0.00,,,0.00,WUHU216HW,2013-10-04 04:45:00,
2013-10-04 00:46:00,69.4,61.8,29.77,North,0,0.0,0.0,77,0.00,,,0.00,WUHU216HW,2013-10-04 04:46:00,
2013-10-04 00:47:00,69.4,61.8,29.77,North,0,0.0,0.0,77,0.00,,,0.00,WUHU216HW,2013-10-04 04:47:00,
2013-10-04 00:48:00,69.4,61.8,29.77,NNW,338,0.0,0.0,77,0.00,,,0.00,WUHU216HW,2013-10-04 04:48:00,
2013-10-04 00:49:00,69.4,61.8,29.77,NNW,338,0.0,0.0,77,0.00,,,0.00,WUHU216HW,2013-10-04 04:49:00,
2013-10-04 00:50:00,69.4,61.8,29.77,NE,45,0.0,0.0,77,0.00,,,0.00,WUHU216HW,2013-10-04 04:50:00,
2013-10-04 01:08:00,69.4,61.8,29.77,North,0,0.0,0.0,76,0.00,,,0.00,WUHU216HW,2013-10-04 05:08:00,
2013-10-04 01:10:00,69.4,61.8,29.77,NNW,338,0.0,0.0,77,0.00,,,0.00,WUHU216HW,2013-10-04 05:10:00,
2013-10-04 01:11:00,69.4,61.8,29.77,NNW,338,0.0,0.0,77,0.00,,,0.00,WUHU216HW,2013-10-04 05:11:00,
2013-10-04 01:12:00,69.4,61.8,29.77,NNW,338,0.0,0.0,77,0.00,,,0.00,WUHU216HW,2013-10-04 05:12:00,
2013-10-04 01:13:00,69.4,61.8,29.77,NNW,338,0.0,0.0,77,0.00,,,0.00,WUHU216HW,2013-10-04 05:13:00,
2013-10-04 01:14:00,69.4,61.8,29.77,NNW,338,0.0,0.0,77,0.00,,,0.00,WUHU216HW,2013-10-04 05:14:00,
2013-10-04 01:16:00,69.4,61.8,29.77,North,0,0.0,0.0,77,0.00,,,0.00,WUHU216HW,2013-10-04 05:16:00,
2013-10-04 01:17:00,69.4,61.8,29.77,North,0,0.0,0.0,77,0.00,,,0.00,WUHU216HW,2013-10-04 05:17:00,
2013-10-04 01:18:00,69.2,61.7,29.77,North,0,0.0,0.0,77,0.00,,,0.00,WUHU216HW,2013-10-04 05:18:00,
2013-10-04 01:19:00,69.2,61.7,29.77,North,0,0.0,0.0,77,0.00,,,0.00,WUHU216HW,2013-10-04 05:19:00,
2013-10-04 01:20:00,69.4,61.8,29.77,North,0,0.0,0.0,77,0.00,,,0.00,WUHU216HW,2013-10-04 05:20:00,
2013-10-04 01:22:00,69.4,61.8,29.77,ENE,68,0.0,0.0,77,0.00,,,0.00,WUHU216HW,2013-10-04 05:22:00,
2013-10-04 01:23:00,69.4,61.8,29.77,ENE,68,0.0,0.0,77,0.00,,,0.00,WUHU216HW,2013-10-04 05:23:00,
2013-10-04 01:24:00,69.2,61.7,29.77,NE,45,0.0,0.0,77,0.00,,,0.00,WUHU216HW,2013-10-04 05:24:00,
2013-10-04 01:39:00,69.2,62.8,29.82,SE,135,0.0,0.0,80,0.00,,,0.00,WUHU216HW,2013-10-04 05:39:00,
2013-10-04 01:44:00,69.0,62.6,29.82,SE,135,0.0,0.0,80,0.00,,,0.00,WUHU216HW,2013-10-04 05:44:00,
2013-10-04 01:50:00,69.0,62.6,29.82,SE,135,0.0,0.0,81,0.00,,,0.00,WUHU216HW,2013-10-04 05:50:00,
2013-10-04 01:55:00,68.9,62.8,29.82,SE,135,0.0,0.0,81,0.00,,,0.00,WUHU216HW,2013-10-04 05:55:00,
2013-10-04 02:00:00,68.7,62.6,29.82,SE,135,0.0,0.0,81,0.00,,,0.00,WUHU216HW,2013-10-04 06:00:00,
2013-10-04 02:05:00,68.7,62.6,29.82,SE,135,0.0,0.0,81,0.00,,,0.00,WUHU216HW,2013-10-04 06:05:00,
2013-10-04 02:10:00,68.5,62.5,29.82,SE,135,0.0,0.0,81,0.00,,,0.00,WUHU216HW,2013-10-04 06:10:00,
2013-10-04 02:15:00,68.5,62.5,29.82,SE,135,0.0,0.0,82,0.00,,,0.00,WUHU216HW,2013-10-04 06:15:00,
2013-10-04 02:20:00,68.3,62.6,29.82,SE,135,0.0,0.0,82,0.00,,,0.00,WUHU216HW,2013-10-04 06:20:00,
2013-10-04 02:25:00,68.3,62.6,29.82,SE,135,0.0,0.0,82,0.00,,,0.00,WUHU216HW,2013-10-04 06:25:00,
2013-10-04 02:30:00,68.1,62.5,29.82,SE,135,0.0,0.0,82,0.00,,,0.00,WUHU216HW,2013-10-04 06:30:00,
2013-10-04 02:36:00,68.0,62.6,29.82,SE,135,0.0,0.0,83,0.00,,,0.00,WUHU216HW,2013-10-04 06:36:00,
2013-10-04 02:41:00,68.0,62.6,29.82,SE,135,0.0,0.0,83,0.00,,,0.00,WUHU216HW,2013-10-04 06:41:00,
2013-10-04 02:43:00,67.8,61.5,29.78,NNE,23,0.0,0.0,80,0.00,,,0.00,WUHU216HW,2013-10-04 06:43:00,
2013-10-04 02:45:00,67.8,61.5,29.78,NNE,23,0.0,0.0,80,0.00,,,0.00,WUHU216HW,2013-10-04 06:45:00,
2013-10-04 02:46:00,67.8,62.4,29.82,SE,135,0.0,0.0,84,0.00,,,0.00,WUHU216HW,2013-10-04 06:46:00,
2013-10-04 02:47:00,67.8,61.5,29.77,NNE,23,0.0,0.0,80,0.00,,,0.00,WUHU216HW,2013-10-04 06:47:00,
2013-10-04 02:49:00,67.8,61.5,29.78,NNE,23,0.0,0.0,80,0.00,,,0.00,WUHU216HW,2013-10-04 06:49:00,
2013-10-04 02:50:00,67.6,61.3,29.78,North,0,0.0,0.0,80,0.00,,,0.00,WUHU216HW,2013-10-04 06:50:00,
2013-10-04 02:51:00,67.8,62.4,29.82,SE,135,0.0,0.0,83,0.00,,,0.00,WUHU216HW,2013-10-04 06:51:00,
2013-10-04 02:52:00,67.6,61.3,29.77,NE,45,0.0,0.0,80,0.00,,,0.00,WUHU216HW,2013-10-04 06:52:00,
2013-10-04 02:53:00,67.6,61.3,29.77,NE,45,0.0,0.0,80,0.00,,,0.00,WUHU216HW,2013-10-04 06:53:00,
2013-10-04 02:54:00,67.6,61.3,29.77,NE,45,0.0,0.0,80,0.00,,,0.00,WUHU216HW,2013-10-04 06:54:00,
2013-10-04 02:56:00,67.8,62.4,29.82,SE,135,0.0,0.0,83,0.00,,,0.00,WUHU216HW,2013-10-04 06:56:00,
2013-10-04 02:57:00,67.6,61.3,29.77,NNE,23,0.0,0.0,80,0.00,,,0.00,WUHU216HW,2013-10-04 06:57:00,
2013-10-04 02:59:00,67.6,61.3,29.77,North,0,0.0,0.0,80,0.00,,,0.00,WUHU216HW,2013-10-04 06:59:00,
2013-10-04 03:00:00,67.6,61.3,29.78,North,0,0.0,0.0,80,0.00,,,0.00,WUHU216HW,2013-10-04 07:00:00,
2013-10-04 03:01:00,67.8,62.4,29.82,SE,135,0.0,0.0,83,0.00,,,0.00,WUHU216HW,2013-10-04 07:01:00,
2013-10-04 03:07:00,67.6,62.3,29.81,SE,135,0.0,0.0,83,0.00,,,0.00,WUHU216HW,2013-10-04 07:07:00,
2013-10-04 03:12:00,67.6,62.3,29.81,SE,135,0.0,0.0,84,0.00,,,0.00,WUHU216HW,2013-10-04 07:12:00,
2013-10-04 03:17:00,67.6,62.3,29.82,SE,135,0.0,0.0,84,0.00,,,0.00,WUHU216HW,2013-10-04 07:17:00,
2013-10-04 03:19:00,67.2,61.3,29.78,North,0,0.0,0.0,81,0.00,,,0.00,WUHU216HW,2013-10-04 07:19:00,
2013-10-04 03:20:00,67.2,61.3,29.78,North,0,0.0,0.0,81,0.00,,,0.00,WUHU216HW,2013-10-04 07:20:00,
2013-10-04 03:21:00,67.2,61.3,29.78,North,0,0.0,0.0,81,0.00,,,0.00,WUHU216HW,2013-10-04 07:21:00,
2013-10-04 03:22:00,67.2,62.2,29.82,SE,135,0.0,0.0,84,0.00,,,0.00,WUHU216HW,2013-10-04 07:22:00,
2013-10-04 03:23:00,67.2,61.3,29.78,NNW,338,0.0,0.0,81,0.00,,,0.00,WUHU216HW,2013-10-04 07:23:00,
2013-10-04 03:25:00,67.2,61.3,29.78,North,0,0.0,0.0,81,0.00,,,0.00,WUHU216HW,2013-10-04 07:25:00,
2013-10-04 03:26:00,67.1,61.1,29.78,NNE,23,0.0,0.0,81,0.00,,,0.00,WUHU216HW,2013-10-04 07:26:00,
2013-10-04 03:27:00,67.2,62.2,29.82,SE,135,0.0,0.0,85,0.00,,,0.00,WUHU216HW,2013-10-04 07:27:00,
2013-10-04 03:28:00,67.1,61.1,29.78,NNE,23,0.0,0.0,81,0.00,,,0.00,WUHU216HW,2013-10-04 07:28:00,
2013-10-04 03:29:00,67.1,61.1,29.78,NNE,23,0.0,0.0,81,0.00,,,0.00,WUHU216HW,2013-10-04 07:29:00,
2013-10-04 03:30:00,67.1,61.1,29.78,NNE,23,0.0,0.0,81,0.00,,,0.00,WUHU216HW,2013-10-04 07:30:00,
2013-10-04 03:31:00,67.1,61.1,29.78,NNE,23,0.0,0.0,81,0.00,,,0.00,WUHU216HW,2013-10-04 07:31:00,
2013-10-04 03:32:00,67.1,62.0,29.82,SE,135,0.0,0.0,84,0.00,,,0.00,WUHU216HW,2013-10-04 07:32:00,
2013-10-04 03:33:00,66.9,60.9,29.78,NNE,23,0.0,0.0,81,0.00,,,0.00,WUHU216HW,2013-10-04 07:33:00,
2013-10-04 03:34:00,66.9,60.9,29.78,NNE,23,0.0,0.0,81,0.00,,,0.00,WUHU216HW,2013-10-04 07:34:00,
2013-10-04 03:35:00,66.9,60.9,29.78,North,0,0.0,0.0,81,0.00,,,0.00,WUHU216HW,2013-10-04 07:35:00,
2013-10-04 03:37:00,67.1,62.0,29.82,SE,135,0.0,0.0,84,0.00,,,0.00,WUHU216HW,2013-10-04 07:37:00,
2013-10-04 03:38:00,66.9,60.9,29.78,North,0,0.0,0.0,81,0.00,,,0.00,WUHU216HW,2013-10-04 07:38:00,
2013-10-04 03:40:00,66.9,60.9,29.78,North,0,0.0,0.0,81,0.00,,,0.00,WUHU216HW,2013-10-04 07:40:00,
2013-10-04 03:42:00,66.9,60.9,29.79,North,0,0.0,0.0,81,0.00,,,0.00,WUHU216HW,2013-10-04 07:42:00,
2013-10-04 03:43:00,66.9,61.9,29.81,SE,135,0.0,0.0,84,0.00,,,0.00,WUHU216HW,2013-10-04 07:43:00,
2013-10-04 03:45:00,66.9,60.9,29.79,North,0,0.0,0.0,81,0.00,,,0.00,WUHU216HW,2013-10-04 07:45:00,
2013-10-04 03:46:00,66.9,60.9,29.79,North,0,0.0,0.0,82,0.00,,,0.00,WUHU216HW,2013-10-04 07:46:00,
2013-10-04 03:47:00,66.9,60.9,29.79,North,0,0.0,0.0,82,0.00,,,0.00,WUHU216HW,2013-10-04 07:47:00,
2013-10-04 03:48:00,66.9,61.9,29.81,SE,135,0.0,0.0,84,0.00,,,0.00,WUHU216HW,2013-10-04 07:48:00,
2013-10-04 03:51:00,66.9,60.9,29.79,North,0,0.0,0.0,82,0.00,,,0.00,WUHU216HW,2013-10-04 07:51:00,
2013-10-04 03:53:00,66.9,61.9,29.81,SE,135,0.0,0.0,85,0.00,,,0.00,WUHU216HW,2013-10-04 07:53:00,
2013-10-04 03:54:00,66.7,61.0,29.79,North,0,0.0,0.0,82,0.00,,,0.00,WUHU216HW,2013-10-04 07:54:00,
2013-10-04 03:56:00,66.7,61.0,29.79,North,0,0.0,0.0,82,0.00,,,0.00,WUHU216HW,2013-10-04 07:56:00,
2013-10-04 03:57:00,66.7,61.0,29.79,North,0,0.0,0.0,82,0.00,,,0.00,WUHU216HW,2013-10-04 07:57:00,
2013-10-04 03:58:00,66.7,62.0,29.81,SE,135,0.0,0.0,85,0.00,,,0.00,WUHU216HW,2013-10-04 07:58:00,
2013-10-04 04:03:00,66.7,62.0,29.81,SE,135,0.0,0.0,85,0.00,,,0.00,WUHU216HW,2013-10-04 08:03:00,
2013-10-04 04:08:00,66.5,61.8,29.81,SE,135,0.0,0.0,85,0.00,,,0.00,WUHU216HW,2013-10-04 08:08:00,
2013-10-04 04:13:00,66.5,61.8,29.81,SE,135,0.0,0.0,85,0.00,,,0.00,WUHU216HW,2013-10-04 08:13:00,
2013-10-04 04:18:00,66.3,62.0,29.81,SE,135,0.0,0.0,85,0.00,,,0.00,WUHU216HW,2013-10-04 08:18:00,
2013-10-04 04:23:00,66.3,62.0,29.81,SE,135,0.0,0.0,86,0.00,,,0.00,WUHU216HW,2013-10-04 08:23:00,
2013-10-04 04:29:00,66.3,62.0,29.81,SE,135,0.0,0.0,86,0.00,,,0.00,WUHU216HW,2013-10-04 08:29:00,
2013-10-04 04:34:00,66.2,61.8,29.81,SE,135,0.0,0.0,86,0.00,,,0.00,WUHU216HW,2013-10-04 08:34:00,
2013-10-04 04:39:00,66.0,61.6,29.82,SE,135,0.0,0.0,86,0.00,,,0.00,WUHU216HW,2013-10-04 08:39:00,
2013-10-04 04:44:00,66.0,61.6,29.82,SE,135,0.0,0.0,86,0.00,,,0.00,WUHU216HW,2013-10-04 08:44:00,
2013-10-04 04:50:00,66.0,61.6,29.82,SE,135,0.0,0.0,87,0.00,,,0.00,WUHU216HW,2013-10-04 08:50:00,
2013-10-04 04:55:00,66.0,61.6,29.82,SE,135,0.0,0.0,87,0.00,,,0.00,WUHU216HW,2013-10-04 08:55:00,
2013-10-04 05:00:00,65.8,61.8,29.82,SE,135,0.0,0.0,87,0.00,,,0.00,WUHU216HW,2013-10-04 09:00:00,
2013-10-04 05:05:00,65.8,61.8,29.82,SE,135,0.0,0.0,87,0.00,,,0.00,WUHU216HW,2013-10-04 09:05:00,
2013-10-04 05:10:00,65.8,61.8,29.82,SE,135,0.0,0.0,87,0.00,,,0.00,WUHU216HW,2013-10-04 09:10:00,
2013-10-04 05:15:00,65.8,61.8,29.82,SE,135,0.0,0.0,87,0.00,,,0.00,WUHU216HW,2013-10-04 09:15:00,
2013-10-04 05:18:00,66.0,60.6,29.79,North,0,0.0,0.0,84,0.00,,,0.00,WUHU216HW,2013-10-04 09:18:00,
2013-10-04 05:20:00,65.8,60.8,29.79,NNE,23,0.0,0.0,84,0.00,,,0.00,WUHU216HW,2013-10-04 09:20:00,
2013-10-04 05:21:00,65.8,61.8,29.82,SE,135,0.0,0.0,87,0.00,,,0.00,WUHU216HW,2013-10-04 09:21:00,
2013-10-04 05:23:00,65.8,60.8,29.79,NNW,338,0.0,0.0,84,0.00,,,0.00,WUHU216HW,2013-10-04 09:23:00,
2013-10-04 05:24:00,65.8,60.8,29.79,NNW,338,0.0,0.0,84,0.00,,,0.00,WUHU216HW,2013-10-04 09:24:00,
2013-10-04 05:25:00,65.8,60.8,29.79,NNW,338,0.0,0.0,84,0.00,,,0.00,WUHU216HW,2013-10-04 09:25:00,
2013-10-04 05:26:00,65.4,61.5,29.82,SE,135,0.0,0.0,87,0.00,,,0.00,WUHU216HW,2013-10-04 09:26:00,
2013-10-04 05:28:00,65.8,60.8,29.79,NNW,338,0.0,0.0,84,0.00,,,0.00,WUHU216HW,2013-10-04 09:28:00,
2013-10-04 05:30:00,65.8,60.8,29.78,NNW,338,0.0,0.0,84,0.00,,,0.00,WUHU216HW,2013-10-04 09:30:00,
2013-10-04 05:31:00,65.4,61.5,29.82,SE,135,0.0,0.0,87,0.00,,,0.00,WUHU216HW,2013-10-04 09:31:00,
2013-10-04 05:33:00,65.8,60.8,29.79,NNW,338,0.0,0.0,84,0.00,,,0.00,WUHU216HW,2013-10-04 09:33:00,
2013-10-04 05:34:00,65.8,60.8,29.78,NNW,338,0.0,0.0,84,0.00,,,0.00,WUHU216HW,2013-10-04 09:34:00,
2013-10-04 05:35:00,65.8,60.8,29.79,NNW,338,0.0,0.0,84,0.00,,,0.00,WUHU216HW,2013-10-04 09:35:00,
2013-10-04 05:36:00,65.4,61.5,29.82,SE,135,0.0,0.0,87,0.00,,,0.00,WUHU216HW,2013-10-04 09:36:00,
2013-10-04 05:38:00,65.8,60.8,29.78,North,0,0.0,0.0,84,0.00,,,0.00,WUHU216HW,2013-10-04 09:38:00,
2013-10-04 05:39:00,65.8,60.8,29.78,North,0,0.0,0.0,84,0.00,,,0.00,WUHU216HW,2013-10-04 09:39:00,
2013-10-04 05:41:00,65.4,61.5,29.82,SE,135,0.0,0.0,87,0.00,,,0.00,WUHU216HW,2013-10-04 09:41:00,
2013-10-04 05:43:00,65.8,60.8,29.78,NNE,23,0.0,0.0,84,0.00,,,0.00,WUHU216HW,2013-10-04 09:43:00,
2013-10-04 05:44:00,65.8,60.8,29.78,NNE,23,0.0,0.0,85,0.00,,,0.00,WUHU216HW,2013-10-04 09:44:00,
2013-10-04 05:45:00,65.8,60.8,29.78,NNE,23,0.0,0.0,85,0.00,,,0.00,WUHU216HW,2013-10-04 09:45:00,
2013-10-04 05:46:00,65.4,61.5,29.82,SE,135,0.0,0.0,87,0.00,,,0.00,WUHU216HW,2013-10-04 09:46:00,
2013-10-04 05:47:00,65.6,61.0,29.78,NNE,23,0.0,0.0,85,0.00,,,0.00,WUHU216HW,2013-10-04 09:47:00,
2013-10-04 05:48:00,65.6,61.0,29.78,NNE,23,0.0,0.0,85,0.00,,,0.00,WUHU216HW,2013-10-04 09:48:00,
2013-10-04 05:49:00,65.8,61.1,29.79,NNE,23,0.0,0.0,85,0.00,,,0.00,WUHU216HW,2013-10-04 09:49:00,
2013-10-04 05:50:00,65.8,61.1,29.79,NNE,23,0.0,0.0,85,0.00,,,0.00,WUHU216HW,2013-10-04 09:50:00,
2013-10-04 05:51:00,65.1,61.1,29.82,SE,135,0.0,0.0,87,0.00,,,0.00,WUHU216HW,2013-10-04 09:51:00,
2013-10-04 05:52:00,65.8,61.1,29.78,NNE,23,0.0,0.0,85,0.00,,,0.00,WUHU216HW,2013-10-04 09:52:00,
2013-10-04 05:53:00,65.8,61.1,29.79,North,0,0.0,0.0,85,0.00,,,0.00,WUHU216HW,2013-10-04 09:53:00,
2013-10-04 05:55:00,65.6,61.0,29.79,North,0,0.0,0.0,85,0.00,,,0.00,WUHU216HW,2013-10-04 09:55:00,
2013-10-04 05:56:00,65.1,61.1,29.82,SE,135,0.0,0.0,87,0.00,,,0.00,WUHU216HW,2013-10-04 09:56:00,
2013-10-04 06:01:00,65.1,61.1,29.82,SE,135,0.0,0.0,87,0.00,,,0.00,WUHU216HW,2013-10-04 10:01:00,
2013-10-04 06:07:00,65.1,61.1,29.82,SE,135,0.0,0.0,87,0.00,,,0.00,WUHU216HW,2013-10-04 10:07:00,
2013-10-04 06:12:00,64.9,60.9,29.82,SE,135,0.0,0.0,87,0.00,,,0.00,WUHU216HW,2013-10-04 10:12:00,
2013-10-04 06:17:00,64.9,60.9,29.82,SE,135,0.0,0.0,88,0.00,,,0.00,WUHU216HW,2013-10-04 10:17:00,
2013-10-04 06:22:00,64.7,61.1,29.82,SE,135,0.0,0.0,88,0.00,,,0.00,WUHU216HW,2013-10-04 10:22:00,
2013-10-04 06:23:00,65.3,60.6,29.79,North,0,0.0,0.0,85,0.00,,,0.00,WUHU216HW,2013-10-04 10:23:00,
2013-10-04 06:24:00,65.3,60.6,29.80,North,0,0.0,0.0,85,0.00,,,0.00,WUHU216HW,2013-10-04 10:24:00,
2013-10-04 06:26:00,65.3,60.6,29.79,NNW,338,0.0,0.0,85,0.00,,,0.00,WUHU216HW,2013-10-04 10:26:00,
2013-10-04 06:27:00,64.7,61.1,29.82,SE,135,0.0,0.0,88,0.00,,,0.00,WUHU216HW,2013-10-04 10:27:00,
2013-10-04 06:28:00,65.3,60.6,29.79,NNW,338,0.0,0.0,85,0.00,,,0.00,WUHU216HW,2013-10-04 10:28:00,
2013-10-04 06:29:00,65.3,60.6,29.79,NNW,338,0.0,0.0,85,0.00,,,0.00,WUHU216HW,2013-10-04 10:29:00,
2013-10-04 06:30:00,65.3,60.6,29.79,NNW,338,0.0,0.0,85,0.00,,,0.00,WUHU216HW,2013-10-04 10:30:00,
2013-10-04 06:31:00,65.3,60.6,29.79,NNW,338,0.0,0.0,85,0.00,,,0.00,WUHU216HW,2013-10-04 10:31:00,
2013-10-04 06:32:00,64.5,61.0,29.82,SE,135,0.0,0.0,88,0.00,,,0.00,WUHU216HW,2013-10-04 10:32:00,
2013-10-04 06:34:00,65.3,60.6,29.79,NNW,338,0.0,0.0,85,0.00,,,0.00,WUHU216HW,2013-10-04 10:34:00,
2013-10-04 06:35:00,65.3,60.6,29.79,NNW,338,0.0,0.0,85,0.00,,,0.00,WUHU216HW,2013-10-04 10:35:00,
2013-10-04 06:36:00,65.3,60.6,29.79,NNW,338,0.0,0.0,85,0.00,,,0.00,WUHU216HW,2013-10-04 10:36:00,
2013-10-04 06:37:00,64.5,61.0,29.82,SE,135,0.0,0.0,88,0.00,,,0.00,WUHU216HW,2013-10-04 10:37:00,
2013-10-04 06:41:00,65.3,60.6,29.79,NNW,338,0.0,0.0,86,0.00,,,0.00,WUHU216HW,2013-10-04 10:41:00,
2013-10-04 06:42:00,64.5,61.0,29.82,SE,135,0.0,0.0,88,0.00,,,0.00,WUHU216HW,2013-10-04 10:42:00,
2013-10-04 06:48:00,64.5,61.0,29.82,SE,135,0.0,0.0,88,0.00,,,0.00,WUHU216HW,2013-10-04 10:48:00,
2013-10-04 06:49:00,65.1,60.8,29.79,NNW,338,0.0,0.0,86,0.00,,,0.00,WUHU216HW,2013-10-04 10:49:00,
2013-10-04 06:52:00,65.1,60.8,29.79,NNW,338,0.0,0.0,86,0.00,,,0.00,WUHU216HW,2013-10-04 10:52:00,
2013-10-04 06:53:00,64.4,60.8,29.82,SE,135,0.0,0.0,88,0.00,,,0.00,WUHU216HW,2013-10-04 10:53:00,
2013-10-04 06:55:00,65.1,60.8,29.78,NNW,338,0.0,0.0,86,0.00,,,0.00,WUHU216HW,2013-10-04 10:55:00,
2013-10-04 06:56:00,65.1,60.8,29.78,NNW,338,0.0,0.0,86,0.00,,,0.00,WUHU216HW,2013-10-04 10:56:00,
2013-10-04 06:58:00,64.4,60.8,29.82,SE,135,0.0,0.0,88,0.00,,,0.00,WUHU216HW,2013-10-04 10:58:00,
2013-10-04 07:00:00,65.1,60.8,29.78,NNW,338,0.0,0.0,86,0.00,,,0.00,WUHU216HW,2013-10-04 11:00:00,
2013-10-04 07:01:00,65.1,60.8,29.78,NNW,338,0.0,0.0,86,0.00,,,0.00,WUHU216HW,2013-10-04 11:01:00,
2013-10-04 07:03:00,64.2,60.6,29.82,SE,135,0.0,0.0,88,0.00,,,0.00,WUHU216HW,2013-10-04 11:03:00,
2013-10-04 07:04:00,65.1,60.8,29.78,NNW,338,0.0,0.0,86,0.00,,,0.00,WUHU216HW,2013-10-04 11:04:00,
2013-10-04 07:05:00,65.1,60.8,29.77,NNW,338,0.0,0.0,86,0.00,,,0.00,WUHU216HW,2013-10-04 11:05:00,
2013-10-04 07:06:00,65.1,60.8,29.77,NNW,338,0.0,0.0,86,0.00,,,0.00,WUHU216HW,2013-10-04 11:06:00,
2013-10-04 07:08:00,64.2,60.6,29.83,SE,135,0.0,0.0,88,0.00,,,0.00,WUHU216HW,2013-10-04 11:08:00,
2013-10-04 07:09:00,65.1,60.8,29.78,NNW,338,0.0,0.0,86,0.00,,,0.00,WUHU216HW,2013-10-04 11:09:00,
2013-10-04 07:10:00,65.1,60.8,29.78,NNW,338,0.0,0.0,86,0.00,,,0.00,WUHU216HW,2013-10-04 11:10:00,
2013-10-04 07:11:00,65.1,60.8,29.77,NNW,338,0.0,0.0,86,0.00,,,0.00,WUHU216HW,2013-10-04 11:11:00,
2013-10-04 07:12:00,65.1,60.8,29.78,NNW,338,0.0,0.0,86,0.00,,,0.00,WUHU216HW,2013-10-04 11:12:00,
2013-10-04 07:13:00,64.2,60.6,29.83,SE,135,0.0,0.0,88,0.00,,,0.00,WUHU216HW,2013-10-04 11:13:00,
2013-10-04 07:18:00,64.2,60.6,29.83,SE,135,0.0,0.0,88,0.00,,,0.00,WUHU216HW,2013-10-04 11:18:00,
2013-10-04 07:23:00,64.0,60.4,29.83,SE,135,0.0,0.0,88,0.00,,,0.00,WUHU216HW,2013-10-04 11:23:00,
2013-10-04 07:28:00,64.9,60.9,29.78,NNW,338,0.0,0.0,87,0.00,,,0.00,WUHU216HW,2013-10-04 11:28:00,
2013-10-04 07:29:00,64.0,60.4,29.83,SE,135,0.0,0.0,89,0.00,,,0.00,WUHU216HW,2013-10-04 11:29:00,
2013-10-04 07:31:00,64.9,60.9,29.79,NNW,338,0.0,0.0,87,0.00,,,0.00,WUHU216HW,2013-10-04 11:31:00,
2013-10-04 07:32:00,64.9,60.9,29.79,NNW,338,0.0,0.0,87,0.00,,,0.00,WUHU216HW,2013-10-04 11:32:00,
2013-10-04 07:33:00,64.9,60.9,29.78,NNW,338,0.0,0.0,87,0.00,,,0.00,WUHU216HW,2013-10-04 11:33:00,
2013-10-04 07:34:00,64.0,60.8,29.83,SE,135,0.0,0.0,89,0.00,,,0.00,WUHU216HW,2013-10-04 11:34:00,
2013-10-04 07:36:00,64.9,60.9,29.78,NNW,338,0.0,0.0,87,0.00,,,0.00,WUHU216HW,2013-10-04 11:36:00,
2013-10-04 07:38:00,64.9,60.9,29.78,NNW,338,0.0,0.0,87,0.00,,,0.00,WUHU216HW,2013-10-04 11:38:00,
2013-10-04 07:39:00,64.0,60.8,29.83,SE,135,0.0,0.0,89,0.00,,,0.00,WUHU216HW,2013-10-04 11:39:00,
2013-10-04 07:43:00,64.7,60.8,29.78,NNW,338,0.0,0.0,87,0.00,,,0.00,WUHU216HW,2013-10-04 11:43:00,
2013-10-04 07:44:00,64.0,60.8,29.83,SE,135,0.0,0.0,89,0.00,,,0.00,WUHU216HW,2013-10-04 11:44:00,
2013-10-04 07:45:00,64.7,60.8,29.78,NNW,338,0.0,0.0,87,0.00,,,0.00,WUHU216HW,2013-10-04 11:45:00,
2013-10-04 07:46:00,64.7,60.8,29.78,NNW,338,0.0,0.0,87,0.00,,,0.00,WUHU216HW,2013-10-04 11:46:00,
2013-10-04 07:47:00,64.9,60.9,29.78,North,0,0.0,0.0,87,0.00,,,0.00,WUHU216HW,2013-10-04 11:47:00,
2013-10-04 07:49:00,64.0,60.8,29.83,SE,135,0.0,0.0,89,0.00,,,0.00,WUHU216HW,2013-10-04 11:49:00,
2013-10-04 07:50:00,64.7,60.8,29.77,North,0,0.0,0.0,87,0.00,,,0.00,WUHU216HW,2013-10-04 11:50:00,
2013-10-04 07:51:00,64.7,60.8,29.77,North,0,0.0,0.0,87,0.00,,,0.00,WUHU216HW,2013-10-04 11:51:00,
2013-10-04 07:54:00,64.0,60.8,29.84,SE,135,0.0,0.0,89,0.00,,,0.00,WUHU216HW,2013-10-04 11:54:00,
2013-10-04 07:59:00,64.0,60.8,29.84,SE,135,0.0,0.0,89,0.00,,,0.00,WUHU216HW,2013-10-04 11:59:00,
2013-10-04 08:04:00,64.2,61.0,29.84,SE,135,0.0,0.0,89,0.00,,,0.00,WUHU216HW,2013-10-04 12:04:00,
2013-10-04 08:09:00,64.2,61.0,29.84,SE,135,0.0,0.0,89,0.00,,,0.00,WUHU216HW,2013-10-04 12:09:00,
2013-10-04 08:13:00,64.7,60.8,29.77,NNW,338,0.0,0.0,87,0.00,,,0.00,WUHU216HW,2013-10-04 12:13:00,
2013-10-04 08:14:00,64.7,60.8,29.77,NNW,338,0.0,0.0,87,0.00,,,0.00,WUHU216HW,2013-10-04 12:14:00,
2013-10-04 08:15:00,64.5,61.6,29.84,SE,135,0.0,0.0,90,0.00,,,0.00,WUHU216HW,2013-10-04 12:15:00,
2013-10-04 08:16:00,64.7,60.8,29.77,NNW,338,0.0,0.0,87,0.00,,,0.00,WUHU216HW,2013-10-04 12:16:00,
2013-10-04 08:17:00,64.7,60.8,29.77,NNW,338,0.0,0.0,87,0.00,,,0.00,WUHU216HW,2013-10-04 12:17:00,
2013-10-04 08:18:00,64.7,60.8,29.77,NNW,338,0.0,0.0,87,0.00,,,0.00,WUHU216HW,2013-10-04 12:18:00,
2013-10-04 08:19:00,64.7,60.8,29.77,NNW,338,0.0,0.0,87,0.00,,,0.00,WUHU216HW,2013-10-04 12:19:00,
2013-10-04 08:20:00,64.7,61.8,29.85,SE,135,0.0,0.0,90,0.00,,,0.00,WUHU216HW,2013-10-04 12:20:00,
2013-10-04 08:21:00,64.7,60.8,29.77,NNW,338,0.0,0.0,87,0.00,,,0.00,WUHU216HW,2013-10-04 12:21:00,
2013-10-04 08:22:00,64.5,60.6,29.77,NNW,338,0.0,0.0,87,0.00,,,0.00,WUHU216HW,2013-10-04 12:22:00,
2013-10-04 08:23:00,64.5,60.6,29.77,NNW,338,0.0,0.0,87,0.00,,,0.00,WUHU216HW,2013-10-04 12:23:00,
2013-10-04 08:24:00,64.7,60.8,29.77,NNW,338,0.0,0.0,87,0.00,,,0.00,WUHU216HW,2013-10-04 12:24:00,
2013-10-04 08:25:00,64.9,62.0,29.85,SE,135,0.0,0.0,90,0.00,,,0.00,WUHU216HW,2013-10-04 12:25:00,
2013-10-04 08:26:00,64.7,60.8,29.77,NNW,338,0.0,0.0,87,0.00,,,0.00,WUHU216HW,2013-10-04 12:26:00,
2013-10-04 08:27:00,64.7,60.8,29.77,NNW,338,0.0,0.0,87,0.00,,,0.00,WUHU216HW,2013-10-04 12:27:00,
2013-10-04 08:28:00,64.7,60.8,29.77,NNW,338,0.0,0.0,87,0.00,,,0.00,WUHU216HW,2013-10-04 12:28:00,
2013-10-04 08:29:00,64.7,60.8,29.77,NNW,338,0.0,0.0,87,0.00,,,0.00,WUHU216HW,2013-10-04 12:29:00,
2013-10-04 08:30:00,65.1,62.1,29.85,SE,135,0.0,0.0,90,0.00,,,0.00,WUHU216HW,2013-10-04 12:30:00,
2013-10-04 08:31:00,64.5,60.6,29.77,NNE,23,0.0,0.0,87,0.00,,,0.00,WUHU216HW,2013-10-04 12:31:00,
2013-10-04 08:32:00,64.5,60.6,29.77,NNE,23,0.0,0.0,87,0.00,,,0.00,WUHU216HW,2013-10-04 12:32:00,
2013-10-04 08:33:00,64.7,60.8,29.77,NNE,23,0.0,0.0,87,0.00,,,0.00,WUHU216HW,2013-10-04 12:33:00,
2013-10-04 08:34:00,64.7,60.8,29.77,NNE,23,0.0,0.0,87,0.00,,,0.00,WUHU216HW,2013-10-04 12:34:00,
2013-10-04 08:35:00,65.3,62.3,29.85,SE,135,0.0,0.0,90,0.00,,,0.00,WUHU216HW,2013-10-04 12:35:00,
2013-10-04 08:36:00,64.5,61.0,29.77,NNE,23,0.0,0.0,88,0.00,,,0.00,WUHU216HW,2013-10-04 12:36:00,
2013-10-04 08:37:00,64.5,61.0,29.77,NNE,23,0.0,0.0,88,0.00,,,0.00,WUHU216HW,2013-10-04 12:37:00,
2013-10-04 08:38:00,64.5,61.0,29.77,NNE,23,0.0,0.0,88,0.00,,,0.00,WUHU216HW,2013-10-04 12:38:00,
2013-10-04 08:39:00,64.5,61.0,29.77,NNE,23,0.0,0.0,88,0.00,,,0.00,WUHU216HW,2013-10-04 12:39:00,
2013-10-04 08:40:00,65.6,62.6,29.85,SE,135,0.0,0.0,90,0.00,,,0.00,WUHU216HW,2013-10-04 12:40:00,
2013-10-04 08:41:00,64.5,61.0,29.77,NNE,23,0.0,0.0,88,0.00,,,0.00,WUHU216HW,2013-10-04 12:41:00,
2013-10-04 08:42:00,64.5,61.0,29.77,NNE,23,0.0,0.0,88,0.00,,,0.00,WUHU216HW,2013-10-04 12:42:00,
2013-10-04 08:43:00,64.5,61.0,29.77,NNE,23,0.0,0.0,88,0.00,,,0.00,WUHU216HW,2013-10-04 12:43:00,
2013-10-04 08:45:00,65.8,62.4,29.85,SE,135,0.0,0.0,89,0.00,,,0.00,WUHU216HW,2013-10-04 12:45:00,
2013-10-04 08:51:00,66.0,62.6,29.85,SE,135,0.0,0.0,89,0.00,,,0.00,WUHU216HW,2013-10-04 12:51:00,
2013-10-04 08:56:00,66.3,62.9,29.85,SE,135,0.0,0.0,89,0.00,,,0.00,WUHU216HW,2013-10-04 12:56:00,
2013-10-04 09:01:00,66.7,63.3,29.85,SE,135,0.0,0.0,89,0.00,,,0.00,WUHU216HW,2013-10-04 13:01:00,
2013-10-04 09:06:00,67.1,63.7,29.85,SE,135,0.0,0.0,89,0.00,,,0.00,WUHU216HW,2013-10-04 13:06:00,
2013-10-04 09:11:00,67.4,63.7,29.85,East,90,0.0,0.0,88,0.00,,,0.00,WUHU216HW,2013-10-04 13:11:00,
2013-10-04 09:16:00,67.8,64.1,29.85,East,90,0.0,0.0,88,0.00,,,0.00,WUHU216HW,2013-10-04 13:16:00,
2013-10-04 09:21:00,68.0,64.2,29.85,East,90,0.0,0.0,88,0.00,,,0.00,WUHU216HW,2013-10-04 13:21:00,
2013-10-04 09:27:00,68.3,64.3,29.85,East,90,0.0,0.0,87,0.00,,,0.00,WUHU216HW,2013-10-04 13:27:00,
2013-10-04 09:28:00,64.4,60.8,29.77,North,0,0.0,0.0,88,0.00,,,0.00,WUHU216HW,2013-10-04 13:28:00,
2013-10-04 09:29:00,64.4,60.8,29.77,North,0,0.0,0.0,88,0.00,,,0.00,WUHU216HW,2013-10-04 13:29:00,
2013-10-04 09:30:00,64.4,60.8,29.77,North,0,0.0,0.0,88,0.00,,,0.00,WUHU216HW,2013-10-04 13:30:00,
2013-10-04 09:32:00,68.7,64.6,29.86,East,90,0.0,0.0,87,0.00,,,0.00,WUHU216HW,2013-10-04 13:32:00,
2013-10-04 09:33:00,64.4,60.8,29.77,North,0,0.0,0.0,88,0.00,,,0.00,WUHU216HW,2013-10-04 13:33:00,
2013-10-04 09:36:00,64.4,60.8,29.77,North,0,0.0,0.0,88,0.00,,,0.00,WUHU216HW,2013-10-04 13:36:00,
2013-10-04 09:37:00,68.9,64.8,29.85,East,90,0.0,0.0,87,0.00,,,0.00,WUHU216HW,2013-10-04 13:37:00,
2013-10-04 09:39:00,64.4,60.8,29.77,North,0,0.0,0.0,88,0.00,,,0.00,WUHU216HW,2013-10-04 13:39:00,
2013-10-04 09:41:00,64.4,60.8,29.77,North,0,0.0,0.0,88,0.00,,,0.00,WUHU216HW,2013-10-04 13:41:00,
2013-10-04 09:42:00,69.4,65.0,29.85,East,90,0.0,0.0,86,0.00,,,0.00,WUHU216HW,2013-10-04 13:42:00,
2013-10-04 09:43:00,64.4,60.8,29.77,North,0,0.0,0.0,88,0.00,,,0.00,WUHU216HW,2013-10-04 13:43:00,
2013-10-04 09:45:00,64.4,60.8,29.77,North,0,0.0,0.0,88,0.00,,,0.00,WUHU216HW,2013-10-04 13:45:00,
2013-10-04 09:47:00,69.6,65.2,29.85,East,90,0.0,0.0,86,0.00,,,0.00,WUHU216HW,2013-10-04 13:47:00,
2013-10-04 09:49:00,64.2,60.6,29.77,North,0,0.0,0.0,88,0.00,,,0.00,WUHU216HW,2013-10-04 13:49:00,
2013-10-04 09:51:00,64.2,60.6,29.77,North,0,0.0,0.0,88,0.00,,,0.00,WUHU216HW,2013-10-04 13:51:00,
2013-10-04 09:52:00,69.9,65.5,29.85,East,90,0.0,0.0,86,0.00,,,0.00,WUHU216HW,2013-10-04 13:52:00,
2013-10-04 09:54:00,64.2,60.6,29.77,NNW,338,0.0,0.0,88,0.00,,,0.00,WUHU216HW,2013-10-04 13:54:00,
2013-10-04 09:56:00,64.2,60.6,29.77,NNW,338,0.0,0.0,88,0.00,,,0.00,WUHU216HW,2013-10-04 13:56:00,
2013-10-04 09:58:00,70.3,65.9,29.85,East,90,0.0,0.0,86,0.00,,,0.00,WUHU216HW,2013-10-04 13:58:00,
2013-10-04 10:03:00,70.3,65.9,29.85,East,90,0.0,0.0,85,0.00,,,0.00,WUHU216HW,2013-10-04 14:03:00,
2013-10-04 10:08:00,70.7,65.9,29.85,East,90,0.0,0.0,85,0.00,,,0.00,WUHU216HW,2013-10-04 14:08:00,
2013-10-04 10:13:00,71.0,65.9,29.85,East,90,0.0,0.0,84,0.00,,,0.00,WUHU216HW,2013-10-04 14:13:00,
2013-10-04 10:18:00,71.2,66.1,29.85,East,90,0.0,0.0,84,0.00,,,0.00,WUHU216HW,2013-10-04 14:18:00,
2013-10-04 10:23:00,71.7,66.3,29.85,East,90,0.0,0.0,83,0.00,,,0.00,WUHU216HW,2013-10-04 14:23:00,
2013-10-04 10:28:00,72.1,66.3,29.85,East,90,0.0,0.0,82,0.00,,,0.00,WUHU216HW,2013-10-04 14:28:00,
2013-10-04 10:29:00,64.0,60.8,29.76,North,0,0.0,0.0,89,0.00,,,0.00,WUHU216HW,2013-10-04 14:29:00,
2013-10-04 10:30:00,64.0,60.8,29.76,North,0,0.0,0.0,89,0.00,,,0.00,WUHU216HW,2013-10-04 14:30:00,
2013-10-04 10:31:00,64.0,60.8,29.76,North,0,0.0,0.0,89,0.00,,,0.00,WUHU216HW,2013-10-04 14:31:00,
2013-10-04 10:32:00,64.0,60.8,29.76,North,0,0.0,0.0,89,0.00,,,0.00,WUHU216HW,2013-10-04 14:32:00,
2013-10-04 10:33:00,72.5,66.7,29.85,East,90,0.0,0.0,82,0.00,,,0.00,WUHU216HW,2013-10-04 14:33:00,
2013-10-04 10:34:00,64.0,60.8,29.76,NNW,338,0.0,0.0,89,0.00,,,0.00,WUHU216HW,2013-10-04 14:34:00,
2013-10-04 10:36:00,64.0,60.8,29.76,NNW,338,0.0,0.0,89,0.00,,,0.00,WUHU216HW,2013-10-04 14:36:00,
2013-10-04 10:37:00,64.0,60.8,29.76,NNW,338,0.0,0.0,89,0.00,,,0.00,WUHU216HW,2013-10-04 14:37:00,
2013-10-04 10:38:00,64.0,60.8,29.76,NNW,338,0.0,0.0,89,0.00,,,0.00,WUHU216HW,2013-10-04 14:38:00,
2013-10-04 10:39:00,72.6,66.8,29.85,ENE,68,0.0,0.0,80,0.00,,,0.00,WUHU216HW,2013-10-04 14:39:00,
2013-10-04 10:41:00,64.0,60.8,29.76,NNW,338,0.0,0.0,89,0.00,,,0.00,WUHU216HW,2013-10-04 14:41:00,
2013-10-04 10:42:00,64.0,60.8,29.76,NNW,338,0.0,0.0,89,0.00,,,0.00,WUHU216HW,2013-10-04 14:42:00,
2013-10-04 10:43:00,64.0,60.8,29.76,NNW,338,0.0,0.0,89,0.00,,,0.00,WUHU216HW,2013-10-04 14:43:00,
2013-10-04 10:44:00,73.0,66.5,29.85,East,90,0.0,0.0,80,0.00,,,0.00,WUHU216HW,2013-10-04 14:44:00,
2013-10-04 10:45:00,64.0,60.8,29.76,NNW,338,0.0,0.0,89,0.00,,,0.00,WUHU216HW,2013-10-04 14:45:00,
2013-10-04 10:49:00,73.5,66.7,29.85,ESE,113,0.0,0.0,79,0.00,,,0.00,WUHU216HW,2013-10-04 14:49:00,
2013-10-04 10:50:00,64.0,60.8,29.76,NNW,338,0.0,0.0,89,0.00,,,0.00,WUHU216HW,2013-10-04 14:50:00,
2013-10-04 10:52:00,64.0,60.8,29.76,NNW,338,0.0,0.0,89,0.00,,,0.00,WUHU216HW,2013-10-04 14:52:00,
2013-10-04 10:53:00,64.0,60.8,29.76,NNW,338,0.0,0.0,89,0.00,,,0.00,WUHU216HW,2013-10-04 14:53:00,
2013-10-04 10:54:00,74.1,67.2,29.85,East,90,0.0,0.0,79,0.00,,,0.00,WUHU216HW,2013-10-04 14:54:00,
2013-10-04 10:55:00,64.0,60.8,29.76,NNW,338,0.0,0.0,89,0.00,,,0.00,WUHU216HW,2013-10-04 14:55:00,
2013-10-04 10:57:00,64.0,60.8,29.76,NNW,338,0.0,0.0,89,0.00,,,0.00,WUHU216HW,2013-10-04 14:57:00,
2013-10-04 10:58:00,64.0,60.8,29.76,NNW,338,0.0,0.0,89,0.00,,,0.00,WUHU216HW,2013-10-04 14:58:00,
2013-10-04 10:59:00,74.3,67.0,29.85,East,90,0.0,0.0,78,0.00,,,0.00,WUHU216HW,2013-10-04 14:59:00,
2013-10-04 11:00:00,64.0,60.8,29.76,NNW,338,0.0,0.0,89,0.00,,,0.00,WUHU216HW,2013-10-04 15:00:00,
2013-10-04 11:04:00,74.8,67.5,29.85,ESE,113,0.0,0.0,78,0.00,,,0.00,WUHU216HW,2013-10-04 15:04:00,
2013-10-04 11:09:00,75.2,67.1,29.85,ESE,113,0.0,0.0,76,0.00,,,0.00,WUHU216HW,2013-10-04 15:09:00,
2013-10-04 11:15:00,75.9,67.4,29.85,ESE,113,0.0,0.0,75,0.00,,,0.00,WUHU216HW,2013-10-04 15:15:00,
2013-10-04 11:20:00,76.2,67.7,29.85,ESE,113,0.0,0.0,75,0.00,,,0.00,WUHU216HW,2013-10-04 15:20:00,
2013-10-04 11:25:00,76.6,68.1,29.85,ESE,113,0.0,0.0,75,0.00,,,0.00,WUHU216HW,2013-10-04 15:25:00,
2013-10-04 11:28:00,63.8,60.6,29.75,NNW,338,0.0,0.0,89,0.00,,,0.00,WUHU216HW,2013-10-04 15:28:00,
2013-10-04 11:29:00,63.8,60.6,29.75,NNW,338,0.0,0.0,89,0.00,,,0.00,WUHU216HW,2013-10-04 15:29:00,
2013-10-04 11:30:00,76.8,67.9,29.84,ESE,113,0.0,0.0,74,0.00,,,0.00,WUHU216HW,2013-10-04 15:30:00,
2013-10-04 11:31:00,63.8,60.6,29.74,NNW,338,0.0,0.0,89,0.00,,,0.00,WUHU216HW,2013-10-04 15:31:00,
2013-10-04 11:33:00,63.8,60.6,29.75,NNW,338,0.0,0.0,89,0.00,,,0.00,WUHU216HW,2013-10-04 15:33:00,
2013-10-04 11:34:00,63.8,60.6,29.74,NNW,338,0.0,0.0,89,0.00,,,0.00,WUHU216HW,2013-10-04 15:34:00,
2013-10-04 11:35:00,77.1,67.8,29.84,ESE,113,0.0,0.0,73,0.00,,,0.00,WUHU216HW,2013-10-04 15:35:00,
2013-10-04 11:36:00,63.8,60.6,29.75,NNW,338,0.0,0.0,89,0.00,,,0.00,WUHU216HW,2013-10-04 15:36:00,
2013-10-04 11:38:00,63.6,60.4,29.75,NNW,338,0.0,0.0,89,0.00,,,0.00,WUHU216HW,2013-10-04 15:38:00,
2013-10-04 11:40:00,77.5,67.8,29.84,ESE,113,0.0,0.0,72,0.00,,,0.00,WUHU216HW,2013-10-04 15:40:00,
2013-10-04 11:41:00,63.6,60.4,29.75,NNW,338,0.0,0.0,89,0.00,,,0.00,WUHU216HW,2013-10-04 15:41:00,
2013-10-04 11:43:00,63.6,60.4,29.75,NNW,338,0.0,0.0,89,0.00,,,0.00,WUHU216HW,2013-10-04 15:43:00,
2013-10-04 11:44:00,63.6,60.4,29.75,NNW,338,0.0,0.0,89,0.00,,,0.00,WUHU216HW,2013-10-04 15:44:00,
2013-10-04 11:45:00,77.9,67.7,29.84,East,90,0.0,0.0,71,0.00,,,0.00,WUHU216HW,2013-10-04 15:45:00,
2013-10-04 11:51:00,78.2,67.6,29.84,East,90,0.0,0.0,70,0.00,,,0.00,WUHU216HW,2013-10-04 15:51:00,
2013-10-04 11:56:00,78.6,67.1,29.84,East,90,0.0,0.0,68,0.00,,,0.00,WUHU216HW,2013-10-04 15:56:00,
2013-10-04 12:01:00,78.9,67.4,29.84,East,90,0.0,0.0,68,0.00,,,0.00,WUHU216HW,2013-10-04 16:01:00,
2013-10-04 12:06:00,79.3,67.8,29.84,East,90,0.0,0.0,68,0.00,,,0.00,WUHU216HW,2013-10-04 16:06:00,
2013-10-04 12:09:00,63.6,60.4,29.74,NNW,338,0.0,0.0,90,0.00,,,0.00,WUHU216HW,2013-10-04 16:09:00,
2013-10-04 12:11:00,79.8,67.4,29.84,East,90,0.0,0.0,66,0.00,,,0.00,WUHU216HW,2013-10-04 16:11:00,
2013-10-04 12:12:00,63.6,60.4,29.74,NNW,338,0.0,0.0,90,0.00,,,0.00,WUHU216HW,2013-10-04 16:12:00,
2013-10-04 12:13:00,63.6,60.4,29.74,NNW,338,0.0,0.0,90,0.00,,,0.00,WUHU216HW,2013-10-04 16:13:00,
2013-10-04 12:14:00,63.6,60.4,29.74,NNW,338,0.0,0.0,90,0.00,,,0.00,WUHU216HW,2013-10-04 16:14:00,
2013-10-04 12:15:00,63.6,60.4,29.74,NNW,338,0.0,0.0,90,0.00,,,0.00,WUHU216HW,2013-10-04 16:15:00,
2013-10-04 12:16:00,80.2,67.8,29.84,ESE,113,0.0,0.0,66,0.00,,,0.00,WUHU216HW,2013-10-04 16:16:00,
2013-10-04 12:18:00,63.6,60.4,29.74,NNW,338,0.0,0.0,90,0.00,,,0.00,WUHU216HW,2013-10-04 16:18:00,
2013-10-04 12:19:00,63.5,60.6,29.74,NNW,338,0.0,0.0,90,0.00,,,0.00,WUHU216HW,2013-10-04 16:19:00,
2013-10-04 12:20:00,63.5,60.6,29.74,NNW,338,0.0,0.0,90,0.00,,,0.00,WUHU216HW,2013-10-04 16:20:00,
2013-10-04 12:21:00,80.6,67.7,29.84,ESE,113,0.0,0.0,65,0.00,,,0.00,WUHU216HW,2013-10-04 16:21:00,
2013-10-04 12:22:00,63.5,60.6,29.73,NNW,338,0.0,0.0,90,0.00,,,0.00,WUHU216HW,2013-10-04 16:22:00,
2013-10-04 12:23:00,63.5,60.6,29.74,NNW,338,0.0,0.0,90,0.00,,,0.00,WUHU216HW,2013-10-04 16:23:00,
2013-10-04 12:24:00,63.5,60.6,29.73,NNW,338,0.0,0.0,90,0.00,,,0.00,WUHU216HW,2013-10-04 16:24:00,
2013-10-04 12:26:00,81.3,67.4,29.83,NW,315,0.0,0.0,63,0.00,,,0.00,WUHU216HW,2013-10-04 16:26:00,
2013-10-04 12:27:00,63.5,60.6,29.73,NNW,338,0.0,0.0,90,0.00,,,0.00,WUHU216HW,2013-10-04 16:27:00,
2013-10-04 12:31:00,82.0,68.5,29.83,ENE,68,0.0,0.0,64,0.00,,,0.00,WUHU216HW,2013-10-04 16:31:00,
2013-10-04 12:36:00,82.0,68.5,29.83,SE,135,0.0,0.0,61,0.00,,,0.00,WUHU216HW,2013-10-04 16:36:00,
2013-10-04 12:41:00,82.4,67.5,29.83,West,270,0.0,0.0,61,0.00,,,0.00,WUHU216HW,2013-10-04 16:41:00,
2013-10-04 12:46:00,83.1,69.1,29.83,WNW,293,0.0,0.0,63,0.00,,,0.00,WUHU216HW,2013-10-04 16:46:00,
2013-10-04 12:51:00,83.8,68.5,29.83,SE,135,0.0,0.0,60,0.00,,,0.00,WUHU216HW,2013-10-04 16:51:00,
2013-10-04 12:57:00,84.2,67.8,29.83,WSW,248,0.0,0.0,58,0.00,,,0.00,WUHU216HW,2013-10-04 16:57:00,
2013-10-04 13:02:00,84.7,67.8,29.82,West,270,0.0,0.0,57,0.00,,,0.00,WUHU216HW,2013-10-04 17:02:00,
2013-10-04 13:07:00,84.5,67.6,29.82,SSE,158,0.0,0.0,57,0.00,,,0.00,WUHU216HW,2013-10-04 17:07:00,
2013-10-04 13:12:00,84.7,67.8,29.82,ESE,113,0.0,0.0,54,0.00,,,0.00,WUHU216HW,2013-10-04 17:12:00,
2013-10-04 13:17:00,84.5,67.1,29.82,ENE,68,0.0,0.0,54,0.00,,,0.00,WUHU216HW,2013-10-04 17:17:00,
2013-10-04 13:18:00,63.3,60.4,29.74,NW,315,0.0,0.0,90,0.00,,,0.00,WUHU216HW,2013-10-04 17:18:00,
2013-10-04 13:19:00,63.3,60.4,29.74,NW,315,0.0,0.0,90,0.00,,,0.00,WUHU216HW,2013-10-04 17:19:00,
2013-10-04 13:20:00,63.3,60.4,29.74,NW,315,0.0,0.0,90,0.00,,,0.00,WUHU216HW,2013-10-04 17:20:00,
2013-10-04 13:21:00,63.3,60.4,29.74,NW,315,0.0,0.0,90,0.00,,,0.00,WUHU216HW,2013-10-04 17:21:00,
2013-10-04 13:22:00,84.0,66.1,29.81,SSE,158,0.0,0.0,56,0.00,,,0.00,WUHU216HW,2013-10-04 17:22:00,
2013-10-04 13:23:00,63.3,60.4,29.74,NW,315,0.0,0.0,90,0.00,,,0.00,WUHU216HW,2013-10-04 17:23:00,
2013-10-04 13:25:00,63.3,60.4,29.74,NW,315,0.0,0.0,90,0.00,,,0.00,WUHU216HW,2013-10-04 17:25:00,
2013-10-04 13:26:00,63.3,60.4,29.74,NW,315,0.0,0.0,90,0.00,,,0.00,WUHU216HW,2013-10-04 17:26:00,
2013-10-04 13:27:00,84.3,66.9,29.81,NNW,338,0.0,0.0,56,0.00,,,0.00,WUHU216HW,2013-10-04 17:27:00,
2013-10-04 13:28:00,63.3,60.4,29.74,NW,315,0.0,0.0,90,0.00,,,0.00,WUHU216HW,2013-10-04 17:28:00,
2013-10-04 13:32:00,84.7,66.7,29.81,ESE,113,0.0,0.0,55,0.00,,,0.00,WUHU216HW,2013-10-04 17:32:00,
2013-10-04 13:37:00,84.5,66.6,29.80,SE,135,0.0,0.0,56,0.00,,,0.00,WUHU216HW,2013-10-04 17:37:00,
2013-10-04 14:02:00,85.8,68.2,29.79,SE,135,0.0,0.0,54,0.00,,,0.00,WUHU216HW,2013-10-04 18:02:00,
2013-10-04 14:08:00,85.6,67.0,29.79,North,0,0.0,0.0,56,0.00,,,0.00,WUHU216HW,2013-10-04 18:08:00,
2013-10-04 14:13:00,85.2,67.2,29.79,North,0,0.0,0.0,55,0.00,,,0.00,WUHU216HW,2013-10-04 18:13:00,
2013-10-04 14:18:00,84.9,67.4,29.79,ENE,68,0.0,0.0,56,0.00,,,0.00,WUHU216HW,2013-10-04 18:18:00,
2013-10-04 14:23:00,84.7,66.7,29.79,ESE,113,0.0,0.0,55,0.00,,,0.00,WUHU216HW,2013-10-04 18:23:00,
2013-10-04 14:28:00,84.7,66.7,29.78,ENE,68,0.0,0.0,56,0.00,,,0.00,WUHU216HW,2013-10-04 18:28:00,
2013-10-04 14:30:00,63.3,60.4,29.74,NNW,338,0.0,0.0,91,0.00,,,0.00,WUHU216HW,2013-10-04 18:30:00,
2013-10-04 14:32:00,63.3,60.4,29.74,NNW,338,0.0,0.0,91,0.00,,,0.00,WUHU216HW,2013-10-04 18:32:00,
2013-10-04 14:33:00,84.3,66.9,29.79,East,90,0.0,0.0,56,0.00,,,0.00,WUHU216HW,2013-10-04 18:33:00,
2013-10-04 14:35:00,63.3,60.4,29.74,NNW,338,0.0,0.0,91,0.00,,,0.00,WUHU216HW,2013-10-04 18:35:00,
2013-10-04 14:36:00,63.3,60.4,29.74,NNW,338,0.0,0.0,91,0.00,,,0.00,WUHU216HW,2013-10-04 18:36:00,
2013-10-04 14:38:00,84.3,66.9,29.79,East,90,0.0,0.0,55,0.00,,,0.00,WUHU216HW,2013-10-04 18:38:00,
2013-10-04 14:39:00,63.1,60.5,29.74,NNW,338,0.0,0.0,91,0.00,,,0.00,WUHU216HW,2013-10-04 18:39:00,
2013-10-04 14:40:00,63.1,60.5,29.74,NNW,338,0.0,0.0,91,0.00,,,0.00,WUHU216HW,2013-10-04 18:40:00,
2013-10-04 14:41:00,63.1,60.5,29.74,NNW,338,0.0,0.0,91,0.00,,,0.00,WUHU216HW,2013-10-04 18:41:00,
2013-10-04 14:43:00,84.2,66.2,29.78,ESE,113,0.0,0.0,55,0.00,,,0.00,WUHU216HW,2013-10-04 18:43:00,
2013-10-04 14:45:00,63.1,60.5,29.74,NNW,338,0.0,0.0,91,0.00,,,0.00,WUHU216HW,2013-10-04 18:45:00,
2013-10-04 14:47:00,63.1,60.5,29.74,NNW,338,0.0,0.0,91,0.00,,,0.00,WUHU216HW,2013-10-04 18:47:00,
2013-10-04 14:48:00,84.0,66.1,29.79,SE,135,0.0,0.0,56,0.00,,,0.00,WUHU216HW,2013-10-04 18:48:00,
2013-10-04 14:53:00,84.0,66.1,29.78,SE,135,0.0,0.0,55,0.00,,,0.00,WUHU216HW,2013-10-04 18:53:00,
2013-10-04 14:58:00,84.3,66.4,29.78,ESE,113,0.0,0.0,55,0.00,,,0.00,WUHU216HW,2013-10-04 18:58:00,
2013-10-04 15:04:00,84.7,66.7,29.78,NW,315,0.0,0.0,54,0.00,,,0.00,WUHU216HW,2013-10-04 19:04:00,
2013-10-04 15:09:00,84.7,66.7,29.78,SSW,203,0.0,0.0,54,0.00,,,0.00,WUHU216HW,2013-10-04 19:09:00,
2013-10-04 15:14:00,84.9,66.4,29.78,ESE,113,0.0,0.0,54,0.00,,,0.00,WUHU216HW,2013-10-04 19:14:00,
2013-10-04 15:19:00,85.1,66.0,29.77,NNW,338,0.0,0.0,54,0.00,,,0.00,WUHU216HW,2013-10-04 19:19:00,
2013-10-04 15:24:00,84.9,66.4,29.78,WNW,293,0.0,0.0,55,0.00,,,0.00,WUHU216HW,2013-10-04 19:24:00,
2013-10-04 15:30:00,84.9,66.4,29.77,SE,135,0.0,0.0,54,0.00,,,0.00,WUHU216HW,2013-10-04 19:30:00,
2013-10-04 15:33:00,62.9,60.3,29.75,NNW,338,0.0,0.0,92,0.00,,,0.00,WUHU216HW,2013-10-04 19:33:00,
2013-10-04 15:35:00,84.9,66.4,29.77,SW,225,0.0,0.0,55,0.00,,,0.00,WUHU216HW,2013-10-04 19:35:00,
2013-10-04 15:36:00,62.9,60.3,29.75,NNW,338,0.0,0.0,92,0.00,,,0.00,WUHU216HW,2013-10-04 19:36:00,
2013-10-04 15:37:00,62.9,60.3,29.75,NNW,338,0.0,0.0,92,0.00,,,0.00,WUHU216HW,2013-10-04 19:37:00,
2013-10-04 15:38:00,62.9,60.3,29.75,NNW,338,0.0,0.0,92,0.00,,,0.00,WUHU216HW,2013-10-04 19:38:00,
2013-10-04 15:39:00,62.9,60.3,29.75,NNW,338,0.0,0.0,92,0.00,,,0.00,WUHU216HW,2013-10-04 19:39:00,
2013-10-04 15:40:00,84.7,65.7,29.77,SE,135,0.0,0.0,53,0.00,,,0.00,WUHU216HW,2013-10-04 19:40:00,
2013-10-04 15:41:00,62.9,60.3,29.75,NNW,338,0.0,0.0,92,0.00,,,0.00,WUHU216HW,2013-10-04 19:41:00,
2013-10-04 15:43:00,62.9,60.3,29.75,NNW,338,0.0,0.0,92,0.00,,,0.00,WUHU216HW,2013-10-04 19:43:00,
2013-10-04 15:44:00,62.9,60.3,29.75,NNW,338,0.0,0.0,92,0.00,,,0.00,WUHU216HW,2013-10-04 19:44:00,
2013-10-04 15:45:00,84.5,66.0,29.77,ESE,113,0.0,0.0,54,0.00,,,0.00,WUHU216HW,2013-10-04 19:45:00,
2013-10-04 15:46:00,62.9,60.3,29.76,NNW,338,0.0,0.0,92,0.00,,,0.00,WUHU216HW,2013-10-04 19:46:00,
2013-10-04 15:47:00,62.9,60.3,29.76,NNW,338,0.0,0.0,92,0.00,,,0.00,WUHU216HW,2013-10-04 19:47:00,
2013-10-04 15:50:00,84.3,65.4,29.77,SSE,158,0.0,0.0,54,0.00,,,0.00,WUHU216HW,2013-10-04 19:50:00,
2013-10-04 15:55:00,84.3,65.4,29.77,SSE,158,0.0,0.0,54,0.00,,,0.00,WUHU216HW,2013-10-04 19:55:00,
2013-10-04 16:00:00,84.3,65.4,29.77,SSE,158,0.0,0.0,54,0.00,,,0.00,WUHU216HW,2013-10-04 20:00:00,
2013-10-04 16:05:00,84.3,65.4,29.77,West,270,0.0,0.0,54,0.00,,,0.00,WUHU216HW,2013-10-04 20:05:00,
2013-10-04 16:10:00,84.3,65.9,29.77,West,270,0.0,0.0,54,0.00,,,0.00,WUHU216HW,2013-10-04 20:10:00,
2013-10-04 16:14:00,62.9,60.3,29.76,NNW,338,0.0,0.0,92,0.00,,,0.00,WUHU216HW,2013-10-04 20:14:00,
2013-10-04 16:15:00,84.0,65.5,29.77,SE,135,0.0,0.0,54,0.00,,,0.00,WUHU216HW,2013-10-04 20:15:00,
2013-10-04 16:16:00,62.9,60.3,29.76,NNW,338,0.0,0.0,92,0.00,,,0.00,WUHU216HW,2013-10-04 20:16:00,
2013-10-04 16:18:00,62.9,60.3,29.76,NNW,338,0.0,0.0,92,0.00,,,0.00,WUHU216HW,2013-10-04 20:18:00,
2013-10-04 16:21:00,84.0,65.5,29.77,SE,135,0.0,0.0,55,0.00,,,0.00,WUHU216HW,2013-10-04 20:21:00,
2013-10-04 16:22:00,62.9,60.3,29.76,NNW,338,0.0,0.0,92,0.00,,,0.00,WUHU216HW,2013-10-04 20:22:00,
2013-10-04 16:24:00,62.9,60.3,29.76,NNW,338,0.0,0.0,92,0.00,,,0.00,WUHU216HW,2013-10-04 20:24:00,
2013-10-04 16:25:00,62.9,60.3,29.76,NNW,338,0.0,0.0,92,0.00,,,0.00,WUHU216HW,2013-10-04 20:25:00,
2013-10-04 16:26:00,83.8,65.9,29.77,ESE,113,0.0,0.0,55,0.00,,,0.00,WUHU216HW,2013-10-04 20:26:00,
2013-10-04 16:27:00,62.9,60.3,29.76,NNW,338,0.0,0.0,92,0.00,,,0.00,WUHU216HW,2013-10-04 20:27:00,
2013-10-04 16:28:00,62.9,60.3,29.76,NNW,338,0.0,0.0,92,0.00,,,0.00,WUHU216HW,2013-10-04 20:28:00,
2013-10-04 16:30:00,62.9,60.3,29.76,NNW,338,0.0,0.0,92,0.00,,,0.00,WUHU216HW,2013-10-04 20:30:00,
2013-10-04 16:31:00,83.8,65.9,29.77,ESE,113,0.0,0.0,55,0.00,,,0.00,WUHU216HW,2013-10-04 20:31:00,
2013-10-04 16:32:00,62.9,60.3,29.77,NNW,338,0.0,0.0,92,0.00,,,0.00,WUHU216HW,2013-10-04 20:32:00,
2013-10-04 16:33:00,62.9,60.3,29.77,NNW,338,0.0,0.0,92,0.00,,,0.00,WUHU216HW,2013-10-04 20:33:00,
2013-10-04 16:34:00,62.9,60.3,29.76,NNW,338,0.0,0.0,92,0.00,,,0.00,WUHU216HW,2013-10-04 20:34:00,
2013-10-04 16:35:00,62.9,60.3,29.76,NNW,338,0.0,0.0,92,0.00,,,0.00,WUHU216HW,2013-10-04 20:35:00,
2013-10-04 16:36:00,83.8,65.9,29.77,WNW,293,0.0,0.0,55,0.00,,,0.00,WUHU216HW,2013-10-04 20:36:00,
2013-10-04 16:37:00,62.9,60.3,29.77,NNW,338,0.0,0.0,92,0.00,,,0.00,WUHU216HW,2013-10-04 20:37:00,
2013-10-04 16:41:00,83.4,65.5,29.77,WNW,293,0.0,0.0,55,0.00,,,0.00,WUHU216HW,2013-10-04 20:41:00,
2013-10-04 16:46:00,83.3,65.3,29.77,ENE,68,0.0,0.0,55,0.00,,,0.00,WUHU216HW,2013-10-04 20:46:00,
2013-10-04 16:51:00,83.3,65.9,29.77,ESE,113,0.0,0.0,56,0.00,,,0.00,WUHU216HW,2013-10-04 20:51:00,
2013-10-04 16:56:00,83.1,65.2,29.77,ESE,113,0.0,0.0,55,0.00,,,0.00,WUHU216HW,2013-10-04 20:56:00,
2013-10-04 17:01:00,83.1,65.2,29.77,ESE,113,0.0,0.0,56,0.00,,,0.00,WUHU216HW,2013-10-04 21:01:00,
2013-10-04 17:06:00,82.9,65.0,29.77,ESE,113,0.0,0.0,55,0.00,,,0.00,WUHU216HW,2013-10-04 21:06:00,
2013-10-04 17:12:00,82.9,65.0,29.77,ESE,113,0.0,0.0,56,0.00,,,0.00,WUHU216HW,2013-10-04 21:12:00,
2013-10-04 17:17:00,82.9,65.0,29.76,ESE,113,0.0,0.0,56,0.00,,,0.00,WUHU216HW,2013-10-04 21:17:00,
2013-10-04 17:22:00,82.5,65.7,29.77,ESE,113,0.0,0.0,57,0.00,,,0.00,WUHU216HW,2013-10-04 21:22:00,
2013-10-04 17:27:00,82.5,65.7,29.77,ESE,113,0.0,0.0,57,0.00,,,0.00,WUHU216HW,2013-10-04 21:27:00,
2013-10-04 17:32:00,82.2,65.3,29.77,ESE,113,0.0,0.0,57,0.00,,,0.00,WUHU216HW,2013-10-04 21:32:00,
2013-10-04 17:37:00,82.0,65.7,29.77,ESE,113,0.0,0.0,58,0.00,,,0.00,WUHU216HW,2013-10-04 21:37:00,
2013-10-04 17:42:00,81.8,65.5,29.77,ESE,113,0.0,0.0,58,0.00,,,0.00,WUHU216HW,2013-10-04 21:42:00,
2013-10-04 17:47:00,81.6,65.4,29.77,ESE,113,0.0,0.0,58,0.00,,,0.00,WUHU216HW,2013-10-04 21:47:00,
2013-10-04 17:52:00,81.5,65.2,29.77,ESE,113,0.0,0.0,58,0.00,,,0.00,WUHU216HW,2013-10-04 21:52:00,
2013-10-04 17:53:00,63.8,61.2,29.76,NNW,338,0.0,0.0,91,0.00,,,0.00,WUHU216HW,2013-10-04 21:53:00,
2013-10-04 17:54:00,64.0,61.4,29.76,NNW,338,0.0,0.0,91,0.00,,,0.00,WUHU216HW,2013-10-04 21:54:00,
2013-10-04 17:55:00,64.0,61.4,29.76,NNW,338,0.0,0.0,91,0.00,,,0.00,WUHU216HW,2013-10-04 21:55:00,
2013-10-04 17:57:00,81.3,65.0,29.77,ESE,113,0.0,0.0,58,0.00,,,0.00,WUHU216HW,2013-10-04 21:57:00,
2013-10-04 17:58:00,64.0,61.4,29.76,NNW,338,0.0,0.0,91,0.00,,,0.00,WUHU216HW,2013-10-04 21:58:00,
2013-10-04 18:00:00,64.2,61.3,29.76,NNW,338,0.0,0.0,90,0.00,,,0.00,WUHU216HW,2013-10-04 22:00:00,
2013-10-04 18:01:00,64.2,61.3,29.76,NNW,338,0.0,0.0,90,0.00,,,0.00,WUHU216HW,2013-10-04 22:01:00,
2013-10-04 18:02:00,81.1,65.4,29.77,ESE,113,0.0,0.0,59,0.00,,,0.00,WUHU216HW,2013-10-04 22:02:00,
2013-10-04 18:03:00,64.2,61.3,29.77,NNW,338,0.0,0.0,90,0.00,,,0.00,WUHU216HW,2013-10-04 22:03:00,
2013-10-04 18:04:00,64.4,61.5,29.76,NNW,338,0.0,0.0,90,0.00,,,0.00,WUHU216HW,2013-10-04 22:04:00,
2013-10-04 18:06:00,64.4,61.5,29.77,NNW,338,0.0,0.0,90,0.00,,,0.00,WUHU216HW,2013-10-04 22:06:00,
2013-10-04 18:07:00,81.1,65.4,29.77,ESE,113,0.0,0.0,59,0.00,,,0.00,WUHU216HW,2013-10-04 22:07:00,
2013-10-04 18:11:00,64.5,61.6,29.77,NNW,338,0.0,0.0,90,0.00,,,0.00,WUHU216HW,2013-10-04 22:11:00,
2013-10-04 18:12:00,80.7,65.6,29.77,ESE,113,0.0,0.0,60,0.00,,,0.00,WUHU216HW,2013-10-04 22:12:00,
2013-10-04 18:13:00,64.5,61.6,29.77,NNW,338,0.0,0.0,90,0.00,,,0.00,WUHU216HW,2013-10-04 22:13:00,
2013-10-04 18:15:00,64.7,61.8,29.77,NNW,338,0.0,0.0,90,0.00,,,0.00,WUHU216HW,2013-10-04 22:15:00,
2013-10-04 18:16:00,64.7,61.8,29.77,NNW,338,0.0,0.0,90,0.00,,,0.00,WUHU216HW,2013-10-04 22:16:00,
2013-10-04 18:17:00,80.7,65.6,29.77,ESE,113,0.0,0.0,60,0.00,,,0.00,WUHU216HW,2013-10-04 22:17:00,
2013-10-04 18:18:00,64.7,61.8,29.77,NNW,338,0.0,0.0,90,0.00,,,0.00,WUHU216HW,2013-10-04 22:18:00,
2013-10-04 18:19:00,64.7,61.8,29.77,NNW,338,0.0,0.0,90,0.00,,,0.00,WUHU216HW,2013-10-04 22:19:00,
2013-10-04 18:23:00,80.4,65.7,29.77,ESE,113,0.0,0.0,61,0.00,,,0.00,WUHU216HW,2013-10-04 22:23:00,
2013-10-04 18:28:00,80.2,65.6,29.77,ESE,113,0.0,0.0,61,0.00,,,0.00,WUHU216HW,2013-10-04 22:28:00,
2013-10-04 18:30:00,65.4,62.1,29.76,NNW,338,0.0,0.0,89,0.00,,,0.00,WUHU216HW,2013-10-04 22:30:00,
2013-10-04 18:32:00,65.4,62.1,29.76,NNW,338,0.0,0.0,88,0.00,,,0.00,WUHU216HW,2013-10-04 22:32:00,
2013-10-04 18:33:00,80.0,65.8,29.77,ESE,113,0.0,0.0,62,0.00,,,0.00,WUHU216HW,2013-10-04 22:33:00,
2013-10-04 18:34:00,65.4,62.1,29.76,NNW,338,0.0,0.0,88,0.00,,,0.00,WUHU216HW,2013-10-04 22:34:00,
2013-10-04 18:36:00,65.4,62.1,29.76,NNW,338,0.0,0.0,88,0.00,,,0.00,WUHU216HW,2013-10-04 22:36:00,
2013-10-04 18:37:00,65.4,62.1,29.76,NNW,338,0.0,0.0,88,0.00,,,0.00,WUHU216HW,2013-10-04 22:37:00,
2013-10-04 18:38:00,79.7,65.5,29.77,ESE,113,0.0,0.0,62,0.00,,,0.00,WUHU216HW,2013-10-04 22:38:00,
2013-10-04 18:39:00,65.4,62.1,29.76,NNW,338,0.0,0.0,88,0.00,,,0.00,WUHU216HW,2013-10-04 22:39:00,
2013-10-04 18:40:00,65.4,62.1,29.76,NNW,338,0.0,0.0,88,0.00,,,0.00,WUHU216HW,2013-10-04 22:40:00,
2013-10-04 18:41:00,65.4,62.1,29.76,NNW,338,0.0,0.0,88,0.00,,,0.00,WUHU216HW,2013-10-04 22:41:00,
2013-10-04 18:42:00,65.4,62.1,29.76,NNW,338,0.0,0.0,88,0.00,,,0.00,WUHU216HW,2013-10-04 22:42:00,
2013-10-04 18:43:00,79.5,65.8,29.77,ESE,113,0.0,0.0,63,0.00,,,0.00,WUHU216HW,2013-10-04 22:43:00,
2013-10-04 18:44:00,65.4,62.1,29.76,NNW,338,0.0,0.0,88,0.00,,,0.00,WUHU216HW,2013-10-04 22:44:00,
2013-10-04 18:45:00,65.6,61.6,29.76,NNW,338,0.0,0.0,87,0.00,,,0.00,WUHU216HW,2013-10-04 22:45:00,
2013-10-04 18:46:00,65.6,61.6,29.77,NNW,338,0.0,0.0,87,0.00,,,0.00,WUHU216HW,2013-10-04 22:46:00,
2013-10-04 18:47:00,65.6,61.6,29.77,NNW,338,0.0,0.0,87,0.00,,,0.00,WUHU216HW,2013-10-04 22:47:00,
2013-10-04 18:48:00,79.3,65.6,29.77,ESE,113,0.0,0.0,64,0.00,,,0.00,WUHU216HW,2013-10-04 22:48:00,
2013-10-04 18:49:00,65.8,62.1,29.76,NNW,338,0.0,0.0,87,0.00,,,0.00,WUHU216HW,2013-10-04 22:49:00,
2013-10-04 18:50:00,65.8,62.1,29.76,NNW,338,0.0,0.0,87,0.00,,,0.00,WUHU216HW,2013-10-04 22:50:00,
2013-10-04 18:51:00,65.8,62.1,29.76,NNW,338,0.0,0.0,87,0.00,,,0.00,WUHU216HW,2013-10-04 22:51:00,
2013-10-04 18:52:00,65.8,62.1,29.76,NNW,338,0.0,0.0,87,0.00,,,0.00,WUHU216HW,2013-10-04 22:52:00,
2013-10-04 18:53:00,78.9,65.7,29.77,ESE,113,0.0,0.0,64,0.00,,,0.00,WUHU216HW,2013-10-04 22:53:00,
2013-10-04 18:54:00,65.8,62.1,29.76,NNW,338,0.0,0.0,87,0.00,,,0.00,WUHU216HW,2013-10-04 22:54:00,
2013-10-04 18:56:00,66.0,62.0,29.76,NNW,338,0.0,0.0,87,0.00,,,0.00,WUHU216HW,2013-10-04 22:56:00,
2013-10-04 18:58:00,78.6,65.8,29.77,ESE,113,0.0,0.0,65,0.00,,,0.00,WUHU216HW,2013-10-04 22:58:00,
2013-10-04 19:03:00,78.6,65.8,29.77,ESE,113,0.0,0.0,65,0.00,,,0.00,WUHU216HW,2013-10-04 23:03:00,
2013-10-04 19:08:00,78.0,65.7,29.77,ESE,113,0.0,0.0,66,0.00,,,0.00,WUHU216HW,2013-10-04 23:08:00,
2013-10-04 19:13:00,77.9,65.6,29.78,ESE,113,0.0,0.0,66,0.00,,,0.00,WUHU216HW,2013-10-04 23:13:00,
2013-10-04 19:18:00,77.5,65.2,29.78,ESE,113,0.0,0.0,66,0.00,,,0.00,WUHU216HW,2013-10-04 23:18:00,
2013-10-04 19:23:00,77.3,65.5,29.77,ESE,113,0.0,0.0,67,0.00,,,0.00,WUHU216HW,2013-10-04 23:23:00,
2013-10-04 19:28:00,77.1,65.3,29.78,ESE,113,0.0,0.0,67,0.00,,,0.00,WUHU216HW,2013-10-04 23:28:00,
2013-10-04 19:34:00,76.8,65.4,29.78,ESE,113,0.0,0.0,68,0.00,,,0.00,WUHU216HW,2013-10-04 23:34:00,
2013-10-04 19:39:00,76.6,65.3,29.78,ESE,113,0.0,0.0,68,0.00,,,0.00,WUHU216HW,2013-10-04 23:39:00,
2013-10-04 19:43:00,66.7,62.3,29.75,NNW,338,0.0,0.0,86,0.00,,,0.00,WUHU216HW,2013-10-04 23:43:00,
2013-10-04 19:44:00,76.6,65.3,29.78,ESE,113,0.0,0.0,68,0.00,,,0.00,WUHU216HW,2013-10-04 23:44:00,
2013-10-04 19:45:00,66.7,62.3,29.75,NNW,338,0.0,0.0,86,0.00,,,0.00,WUHU216HW,2013-10-04 23:45:00,
2013-10-04 19:46:00,66.7,62.3,29.75,NNW,338,0.0,0.0,86,0.00,,,0.00,WUHU216HW,2013-10-04 23:46:00,
2013-10-04 19:47:00,66.7,62.3,29.75,NNW,338,0.0,0.0,86,0.00,,,0.00,WUHU216HW,2013-10-04 23:47:00,
2013-10-04 19:49:00,76.1,65.2,29.78,ESE,113,0.0,0.0,69,0.00,,,0.00,WUHU216HW,2013-10-04 23:49:00,
2013-10-04 19:50:00,66.7,62.0,29.75,NNW,338,0.0,0.0,85,0.00,,,0.00,WUHU216HW,2013-10-04 23:50:00,
2013-10-04 19:51:00,66.7,62.0,29.75,NNW,338,0.0,0.0,85,0.00,,,0.00,WUHU216HW,2013-10-04 23:51:00,
2013-10-04 19:52:00,66.9,62.5,29.75,NNW,338,0.0,0.0,86,0.00,,,0.00,WUHU216HW,2013-10-04 23:52:00,
2013-10-04 19:53:00,66.9,62.5,29.75,NNW,338,0.0,0.0,86,0.00,,,0.00,WUHU216HW,2013-10-04 23:53:00,
2013-10-04 19:54:00,75.9,65.0,29.78,ESE,113,0.0,0.0,69,0.00,,,0.00,WUHU216HW,2013-10-04 23:54:00,
2013-10-04 19:55:00,66.9,62.5,29.75,NNW,338,0.0,0.0,86,0.00,,,0.00,WUHU216HW,2013-10-04 23:55:00,
2013-10-04 19:56:00,66.9,62.5,29.75,NNW,338,0.0,0.0,86,0.00,,,0.00,WUHU216HW,2013-10-04 23:56:00,
2013-10-04 19:57:00,66.9,62.5,29.75,NNW,338,0.0,0.0,86,0.00,,,0.00,WUHU216HW,2013-10-04 23:57:00,
2013-10-04 19:59:00,75.7,65.3,29.78,ESE,113,0.0,0.0,70,0.00,,,0.00,WUHU216HW,2013-10-04 23:59:00,
2013-10-04 20:04:00,75.5,65.1,29.78,ESE,113,0.0,0.0,70,0.00,,,0.00,WUHU216HW,2013-10-05 00:04:00,
2013-10-04 20:09:00,75.3,64.9,29.78,ESE,113,0.0,0.0,71,0.00,,,0.00,WUHU216HW,2013-10-05 00:09:00,
2013-10-04 20:13:00,66.9,62.2,29.74,NNW,338,0.0,0.0,85,0.00,,,0.00,WUHU216HW,2013-10-05 00:13:00,
2013-10-04 20:14:00,75.2,65.1,29.78,ESE,113,0.0,0.0,71,0.00,,,0.00,WUHU216HW,2013-10-05 00:14:00,
2013-10-04 20:16:00,66.9,62.2,29.75,NNW,338,0.0,0.0,84,0.00,,,0.00,WUHU216HW,2013-10-05 00:16:00,
2013-10-04 20:18:00,66.9,62.2,29.74,NNW,338,0.0,0.0,85,0.00,,,0.00,WUHU216HW,2013-10-05 00:18:00,
2013-10-04 20:19:00,75.0,64.9,29.78,ESE,113,0.0,0.0,71,0.00,,,0.00,WUHU216HW,2013-10-05 00:19:00,
2013-10-04 20:21:00,66.9,62.2,29.74,NNW,338,0.0,0.0,85,0.00,,,0.00,WUHU216HW,2013-10-05 00:21:00,
2013-10-04 20:22:00,66.9,62.2,29.74,NNW,338,0.0,0.0,85,0.00,,,0.00,WUHU216HW,2013-10-05 00:22:00,
2013-10-04 20:23:00,66.9,62.2,29.74,NNW,338,0.0,0.0,85,0.00,,,0.00,WUHU216HW,2013-10-05 00:23:00,
2013-10-04 20:24:00,74.8,64.8,29.78,ESE,113,0.0,0.0,71,0.00,,,0.00,WUHU216HW,2013-10-05 00:24:00,
2013-10-04 20:25:00,66.9,62.2,29.75,NNW,338,0.0,0.0,84,0.00,,,0.00,WUHU216HW,2013-10-05 00:25:00,
2013-10-04 20:26:00,67.1,62.0,29.74,NNW,338,0.0,0.0,84,0.00,,,0.00,WUHU216HW,2013-10-05 00:26:00,
2013-10-04 20:27:00,67.1,62.0,29.74,NNW,338,0.0,0.0,84,0.00,,,0.00,WUHU216HW,2013-10-05 00:27:00,
2013-10-04 20:28:00,67.1,62.0,29.75,NNW,338,0.0,0.0,84,0.00,,,0.00,WUHU216HW,2013-10-05 00:28:00,
2013-10-04 20:29:00,74.8,64.8,29.79,ESE,113,0.0,0.0,72,0.00,,,0.00,WUHU216HW,2013-10-05 00:29:00,
2013-10-04 20:30:00,67.1,62.0,29.75,NNW,338,0.0,0.0,84,0.00,,,0.00,WUHU216HW,2013-10-05 00:30:00,
2013-10-04 20:31:00,67.1,62.0,29.75,NNW,338,0.0,0.0,84,0.00,,,0.00,WUHU216HW,2013-10-05 00:31:00,
2013-10-04 20:33:00,67.2,62.2,29.74,NNW,338,0.0,0.0,84,0.00,,,0.00,WUHU216HW,2013-10-05 00:33:00,
2013-10-04 20:34:00,74.4,64.8,29.79,ESE,113,0.0,0.0,72,0.00,,,0.00,WUHU216HW,2013-10-05 00:34:00,
2013-10-04 20:35:00,67.2,62.2,29.74,NNW,338,0.0,0.0,84,0.00,,,0.00,WUHU216HW,2013-10-05 00:35:00,
2013-10-04 20:36:00,67.2,62.2,29.74,NNW,338,0.0,0.0,84,0.00,,,0.00,WUHU216HW,2013-10-05 00:36:00,
2013-10-04 20:37:00,67.2,62.2,29.74,NNW,338,0.0,0.0,84,0.00,,,0.00,WUHU216HW,2013-10-05 00:37:00,
2013-10-04 20:38:00,67.2,62.2,29.75,NNW,338,0.0,0.0,84,0.00,,,0.00,WUHU216HW,2013-10-05 00:38:00,
2013-10-04 20:39:00,74.3,64.7,29.79,ESE,113,0.0,0.0,72,0.00,,,0.00,WUHU216HW,2013-10-05 00:39:00,
2013-10-04 20:40:00,67.4,62.4,29.74,NNW,338,0.0,0.0,84,0.00,,,0.00,WUHU216HW,2013-10-05 00:40:00,
2013-10-04 20:41:00,67.4,62.4,29.74,NNW,338,0.0,0.0,83,0.00,,,0.00,WUHU216HW,2013-10-05 00:41:00,
2013-10-04 20:42:00,67.4,62.4,29.75,NNW,338,0.0,0.0,83,0.00,,,0.00,WUHU216HW,2013-10-05 00:42:00,
2013-10-04 20:43:00,67.4,62.4,29.74,NNW,338,0.0,0.0,83,0.00,,,0.00,WUHU216HW,2013-10-05 00:43:00,
2013-10-04 20:44:00,74.1,64.9,29.79,ESE,113,0.0,0.0,73,0.00,,,0.00,WUHU216HW,2013-10-05 00:44:00,
2013-10-04 20:45:00,67.4,62.4,29.74,NNW,338,0.0,0.0,83,0.00,,,0.00,WUHU216HW,2013-10-05 00:45:00,
2013-10-04 20:46:00,67.4,62.4,29.74,NNW,338,0.0,0.0,83,0.00,,,0.00,WUHU216HW,2013-10-05 00:46:00,
2013-10-04 20:47:00,67.4,62.4,29.74,NNW,338,0.0,0.0,83,0.00,,,0.00,WUHU216HW,2013-10-05 00:47:00,
2013-10-04 20:48:00,67.6,62.3,29.75,NNW,338,0.0,0.0,83,0.00,,,0.00,WUHU216HW,2013-10-05 00:48:00,
2013-10-04 20:49:00,74.1,64.9,29.79,ESE,113,0.0,0.0,73,0.00,,,0.00,WUHU216HW,2013-10-05 00:49:00,
2013-10-04 20:50:00,67.6,62.3,29.74,NNW,338,0.0,0.0,83,0.00,,,0.00,WUHU216HW,2013-10-05 00:50:00,
2013-10-04 20:51:00,67.6,62.3,29.75,NNW,338,0.0,0.0,83,0.00,,,0.00,WUHU216HW,2013-10-05 00:51:00,
2013-10-04 20:54:00,73.9,65.1,29.79,ESE,113,0.0,0.0,74,0.00,,,0.00,WUHU216HW,2013-10-05 00:54:00,
2013-10-04 20:58:00,67.6,62.3,29.74,NNW,338,0.0,0.0,83,0.00,,,0.00,WUHU216HW,2013-10-05 00:58:00,
2013-10-04 20:59:00,73.9,65.1,29.79,ESE,113,0.0,0.0,74,0.00,,,0.00,WUHU216HW,2013-10-05 00:59:00,
2013-10-04 21:00:00,67.6,62.3,29.74,NNW,338,0.0,0.0,83,0.00,,,0.00,WUHU216HW,2013-10-05 01:00:00,
2013-10-04 21:04:00,73.5,64.8,29.79,ESE,113,0.0,0.0,74,0.00,,,0.00,WUHU216HW,2013-10-05 01:04:00,
2013-10-04 21:09:00,73.5,64.8,29.79,ESE,113,0.0,0.0,74,0.00,,,0.00,WUHU216HW,2013-10-05 01:09:00,
2013-10-04 21:13:00,67.6,62.3,29.74,NNW,338,0.0,0.0,83,0.00,,,0.00,WUHU216HW,2013-10-05 01:13:00,
2013-10-04 21:14:00,73.5,64.8,29.80,ESE,113,0.0,0.0,74,0.00,,,0.00,WUHU216HW,2013-10-05 01:14:00,
2013-10-04 21:19:00,73.2,64.8,29.80,ESE,113,0.0,0.0,75,0.00,,,0.00,WUHU216HW,2013-10-05 01:19:00,
2013-10-04 21:20:00,67.6,62.3,29.74,NNW,338,0.0,0.0,83,0.00,,,0.00,WUHU216HW,2013-10-05 01:20:00,
2013-10-04 21:21:00,67.6,62.3,29.74,NNW,338,0.0,0.0,83,0.00,,,0.00,WUHU216HW,2013-10-05 01:21:00,
2013-10-04 21:22:00,67.6,62.3,29.74,NNW,338,0.0,0.0,83,0.00,,,0.00,WUHU216HW,2013-10-05 01:22:00,
2013-10-04 21:25:00,73.2,64.8,29.80,ESE,113,0.0,0.0,76,0.00,,,0.00,WUHU216HW,2013-10-05 01:25:00,
2013-10-04 21:26:00,67.6,62.3,29.73,NNW,338,0.0,0.0,83,0.00,,,0.00,WUHU216HW,2013-10-05 01:26:00,
2013-10-04 21:28:00,67.6,62.3,29.74,NNW,338,0.0,0.0,83,0.00,,,0.00,WUHU216HW,2013-10-05 01:28:00,
2013-10-04 21:30:00,73.0,65.0,29.80,ESE,113,0.0,0.0,76,0.00,,,0.00,WUHU216HW,2013-10-05 01:30:00,
2013-10-04 21:31:00,67.6,62.3,29.74,NNW,338,0.0,0.0,83,0.00,,,0.00,WUHU216HW,2013-10-05 01:31:00,
2013-10-04 21:32:00,67.6,62.3,29.74,NNW,338,0.0,0.0,83,0.00,,,0.00,WUHU216HW,2013-10-05 01:32:00,
2013-10-04 21:33:00,67.6,62.3,29.73,NNW,338,0.0,0.0,83,0.00,,,0.00,WUHU216HW,2013-10-05 01:33:00,
2013-10-04 21:35:00,73.0,65.0,29.80,ESE,113,0.0,0.0,76,0.00,,,0.00,WUHU216HW,2013-10-05 01:35:00,
2013-10-04 21:39:00,67.6,62.3,29.73,NNW,338,0.0,0.0,83,0.00,,,0.00,WUHU216HW,2013-10-05 01:39:00,
2013-10-04 21:40:00,73.0,65.0,29.80,ESE,113,0.0,0.0,76,0.00,,,0.00,WUHU216HW,2013-10-05 01:40:00,
2013-10-04 21:45:00,72.6,64.6,29.81,East,90,0.0,0.0,76,0.00,,,0.00,WUHU216HW,2013-10-05 01:45:00,
2013-10-04 21:50:00,72.6,64.6,29.80,East,90,0.0,0.0,77,0.00,,,0.00,WUHU216HW,2013-10-05 01:50:00,
2013-10-04 21:53:00,67.8,62.1,29.72,NNW,338,0.0,0.0,82,0.00,,,0.00,WUHU216HW,2013-10-05 01:53:00,
2013-10-04 21:54:00,67.8,62.1,29.72,NNW,338,0.0,0.0,82,0.00,,,0.00,WUHU216HW,2013-10-05 01:54:00,
2013-10-04 21:55:00,72.5,64.5,29.80,East,90,0.0,0.0,76,0.00,,,0.00,WUHU216HW,2013-10-05 01:55:00,
2013-10-04 21:56:00,67.8,62.1,29.72,NNW,338,0.0,0.0,82,0.00,,,0.00,WUHU216HW,2013-10-05 01:56:00,
2013-10-04 21:57:00,67.8,62.1,29.72,NNW,338,0.0,0.0,82,0.00,,,0.00,WUHU216HW,2013-10-05 01:57:00,
2013-10-04 21:58:00,67.8,62.1,29.72,NNW,338,0.0,0.0,82,0.00,,,0.00,WUHU216HW,2013-10-05 01:58:00,
2013-10-04 22:00:00,72.5,64.5,29.81,East,90,0.0,0.0,77,0.00,,,0.00,WUHU216HW,2013-10-05 02:00:00,
2013-10-04 22:01:00,68.0,62.3,29.72,NNW,338,0.0,0.0,82,0.00,,,0.00,WUHU216HW,2013-10-05 02:01:00,
2013-10-04 22:02:00,68.0,62.3,29.72,NNW,338,0.0,0.0,82,0.00,,,0.00,WUHU216HW,2013-10-05 02:02:00,
2013-10-04 22:03:00,68.0,62.3,29.72,NNW,338,0.0,0.0,82,0.00,,,0.00,WUHU216HW,2013-10-05 02:03:00,
2013-10-04 22:04:00,68.0,62.3,29.72,NNW,338,0.0,0.0,82,0.00,,,0.00,WUHU216HW,2013-10-05 02:04:00,
2013-10-04 22:05:00,72.3,64.7,29.81,ESE,113,0.0,0.0,77,0.00,,,0.00,WUHU216HW,2013-10-05 02:05:00,
2013-10-04 22:10:00,72.3,64.7,29.81,East,90,0.0,0.0,77,0.00,,,0.00,WUHU216HW,2013-10-05 02:10:00,
2013-10-04 22:15:00,72.1,64.5,29.81,East,90,0.0,0.0,77,0.00,,,0.00,WUHU216HW,2013-10-05 02:15:00,
2013-10-04 22:20:00,72.1,64.5,29.81,East,90,0.0,0.0,77,0.00,,,0.00,WUHU216HW,2013-10-05 02:20:00,
2013-10-04 22:25:00,71.9,64.3,29.81,East,90,0.0,0.0,78,0.00,,,0.00,WUHU216HW,2013-10-05 02:25:00,
2013-10-04 22:30:00,71.7,64.5,29.81,East,90,0.0,0.0,78,0.00,,,0.00,WUHU216HW,2013-10-05 02:30:00,
2013-10-04 22:35:00,71.7,64.5,29.81,East,90,0.0,0.0,78,0.00,,,0.00,WUHU216HW,2013-10-05 02:35:00,
2013-10-04 22:41:00,71.4,64.1,29.81,East,90,0.0,0.0,78,0.00,,,0.00,WUHU216HW,2013-10-05 02:41:00,
2013-10-04 22:42:00,68.7,63.0,29.70,NNW,338,0.0,0.0,82,0.00,,,0.00,WUHU216HW,2013-10-05 02:42:00,
2013-10-04 22:45:00,68.7,63.0,29.70,NNW,338,0.0,0.0,82,0.00,,,0.00,WUHU216HW,2013-10-05 02:45:00,
2013-10-04 22:46:00,71.4,64.1,29.81,East,90,0.0,0.0,78,0.00,,,0.00,WUHU216HW,2013-10-05 02:46:00,
2013-10-04 22:48:00,68.9,63.1,29.70,NNW,338,0.0,0.0,82,0.00,,,0.00,WUHU216HW,2013-10-05 02:48:00,
2013-10-04 22:50:00,68.9,63.1,29.70,NNW,338,0.0,0.0,82,0.00,,,0.00,WUHU216HW,2013-10-05 02:50:00,
2013-10-04 22:51:00,71.4,64.1,29.81,East,90,0.0,0.0,78,0.00,,,0.00,WUHU216HW,2013-10-05 02:51:00,
2013-10-04 22:52:00,68.9,63.1,29.70,NNW,338,0.0,0.0,82,0.00,,,0.00,WUHU216HW,2013-10-05 02:52:00,
2013-10-04 22:53:00,68.9,63.1,29.70,NNW,338,0.0,0.0,82,0.00,,,0.00,WUHU216HW,2013-10-05 02:53:00,
2013-10-04 22:54:00,68.9,63.1,29.70,NNW,338,0.0,0.0,82,0.00,,,0.00,WUHU216HW,2013-10-05 02:54:00,
2013-10-04 22:55:00,68.9,63.1,29.70,NNW,338,0.0,0.0,82,0.00,,,0.00,WUHU216HW,2013-10-05 02:55:00,
2013-10-04 22:56:00,71.2,64.0,29.81,East,90,0.0,0.0,78,0.00,,,0.00,WUHU216HW,2013-10-05 02:56:00,
2013-10-04 22:57:00,69.0,63.3,29.70,NNW,338,0.0,0.0,82,0.00,,,0.00,WUHU216HW,2013-10-05 02:57:00,
2013-10-04 23:00:00,69.0,63.3,29.70,NNW,338,0.0,0.0,81,0.00,,,0.00,WUHU216HW,2013-10-05 03:00:00,
2013-10-04 23:01:00,71.2,64.0,29.81,East,90,0.0,0.0,79,0.00,,,0.00,WUHU216HW,2013-10-05 03:01:00,
2013-10-04 23:03:00,69.0,63.3,29.70,NNW,338,0.0,0.0,81,0.00,,,0.00,WUHU216HW,2013-10-05 03:03:00,
2013-10-04 23:06:00,71.2,64.0,29.81,East,90,0.0,0.0,79,0.00,,,0.00,WUHU216HW,2013-10-05 03:06:00,
2013-10-04 23:11:00,70.8,64.0,29.81,East,90,0.0,0.0,79,0.00,,,0.00,WUHU216HW,2013-10-05 03:11:00,
2013-10-04 23:13:00,69.0,63.3,29.70,NNW,338,0.0,0.0,80,0.00,,,0.00,WUHU216HW,2013-10-05 03:13:00,
2013-10-04 23:14:00,69.0,63.3,29.70,NNW,338,0.0,0.0,80,0.00,,,0.00,WUHU216HW,2013-10-05 03:14:00,
2013-10-04 23:16:00,70.8,64.0,29.81,East,90,0.0,0.0,79,0.00,,,0.00,WUHU216HW,2013-10-05 03:16:00,
2013-10-04 23:17:00,69.0,63.3,29.70,NNW,338,0.0,0.0,80,0.00,,,0.00,WUHU216HW,2013-10-05 03:17:00,
2013-10-04 23:19:00,68.9,62.8,29.70,NNW,338,0.0,0.0,81,0.00,,,0.00,WUHU216HW,2013-10-05 03:19:00,
2013-10-04 23:20:00,68.9,62.8,29.70,NNW,338,0.0,0.0,81,0.00,,,0.00,WUHU216HW,2013-10-05 03:20:00,
2013-10-04 23:21:00,70.7,64.2,29.80,East,90,0.0,0.0,80,0.00,,,0.00,WUHU216HW,2013-10-05 03:21:00,
2013-10-04 23:22:00,68.9,62.8,29.70,NNW,338,0.0,0.0,81,0.00,,,0.00,WUHU216HW,2013-10-05 03:22:00,
2013-10-04 23:24:00,68.9,62.8,29.70,NNW,338,0.0,0.0,81,0.00,,,0.00,WUHU216HW,2013-10-05 03:24:00,
2013-10-04 23:26:00,70.5,64.0,29.81,East,90,0.0,0.0,80,0.00,,,0.00,WUHU216HW,2013-10-05 03:26:00,
2013-10-04 23:27:00,68.9,62.8,29.69,NNW,338,0.0,0.0,81,0.00,,,0.00,WUHU216HW,2013-10-05 03:27:00,
2013-10-04 23:28:00,68.9,62.8,29.70,NNW,338,0.0,0.0,80,0.00,,,0.00,WUHU216HW,2013-10-05 03:28:00,
2013-10-04 23:30:00,68.9,62.8,29.69,NNW,338,0.0,0.0,81,0.00,,,0.00,WUHU216HW,2013-10-05 03:30:00,
2013-10-04 23:31:00,70.5,64.0,29.81,East,90,0.0,0.0,80,0.00,,,0.00,WUHU216HW,2013-10-05 03:31:00,
2013-10-04 23:32:00,68.9,62.8,29.69,NNW,338,0.0,0.0,81,0.00,,,0.00,WUHU216HW,2013-10-05 03:32:00,
2013-10-04 23:33:00,68.9,62.8,29.69,NNW,338,0.0,0.0,81,0.00,,,0.00,WUHU216HW,2013-10-05 03:33:00,
2013-10-04 23:34:00,69.0,63.0,29.70,NNW,338,0.0,0.0,81,0.00,,,0.00,WUHU216HW,2013-10-05 03:34:00,
2013-10-04 23:35:00,69.0,63.0,29.69,NNW,338,0.0,0.0,81,0.00,,,0.00,WUHU216HW,2013-10-05 03:35:00,
2013-10-04 23:36:00,70.3,63.8,29.81,East,90,0.0,0.0,81,0.00,,,0.00,WUHU216HW,2013-10-05 03:36:00,
2013-10-04 23:37:00,69.0,63.0,29.70,NNW,338,0.0,0.0,80,0.00,,,0.00,WUHU216HW,2013-10-05 03:37:00,
2013-10-04 23:38:00,69.0,63.0,29.70,NNW,338,0.0,0.0,81,0.00,,,0.00,WUHU216HW,2013-10-05 03:38:00,
2013-10-04 23:40:00,69.0,63.0,29.70,NNW,338,0.0,0.0,81,0.00,,,0.00,WUHU216HW,2013-10-05 03:40:00,
2013-10-04 23:41:00,70.1,64.0,29.81,East,90,0.0,0.0,81,0.00,,,0.00,WUHU216HW,2013-10-05 03:41:00,
2013-10-04 23:42:00,69.0,63.0,29.70,NNW,338,0.0,0.0,81,0.00,,,0.00,WUHU216HW,2013-10-05 03:42:00,
2013-10-04 23:43:00,69.0,63.0,29.70,NNW,338,0.0,0.0,81,0.00,,,0.00,WUHU216HW,2013-10-05 03:43:00,
2013-10-04 23:45:00,69.0,63.0,29.70,NNW,338,0.0,0.0,81,0.00,,,0.00,WUHU216HW,2013-10-05 03:45:00,
2013-10-04 23:46:00,69.9,63.8,29.81,East,90,0.0,0.0,82,0.00,,,0.00,WUHU216HW,2013-10-05 03:46:00,
2013-10-04 23:48:00,69.0,63.0,29.70,NNW,338,0.0,0.0,81,0.00,,,0.00,WUHU216HW,2013-10-05 03:48:00,
2013-10-04 23:49:00,69.0,63.0,29.70,NNW,338,0.0,0.0,81,0.00,,,0.00,WUHU216HW,2013-10-05 03:49:00,
2013-10-04 23:50:00,69.0,63.0,29.70,NNW,338,0.0,0.0,81,0.00,,,0.00,WUHU216HW,2013-10-05 03:50:00,
2013-10-04 23:51:00,69.6,63.8,29.80,East,90,0.0,0.0,82,0.00,,,0.00,WUHU216HW,2013-10-05 03:51:00,
2013-10-04 23:53:00,69.0,63.0,29.70,NNW,338,0.0,0.0,81,0.00,,,0.00,WUHU216HW,2013-10-05 03:53:00,
2013-10-04 23:55:00,69.0,63.0,29.70,NNW,338,0.0,0.0,81,0.00,,,0.00,WUHU216HW,2013-10-05 03:55:00,
2013-10-04 23:56:00,69.6,63.8,29.80,East,90,0.0,0.0,82,0.00,,,0.00,WUHU216HW,2013-10-05 03:56:00,